Data for 06/06/2008

Time Sea-Level Adjusted Pressure Absolute Pressure Temperature Relative Humidity Dew Point Precipitation   
(mb) (inHg) (mb) (inHg) (C) (F) (%) (C) (F) (mm) (in)
00:01 1010 29.83 839 24.78 9.8 49.6 72 5 41 0
00:02 1010 29.83 839 24.78 9.9 49.7 73 5.2 41.4 0
00:03 1010 29.83 839 24.78 9.8 49.6 72 5 41 0
00:04 1010 29.83 839 24.78 9.7 49.4 73 5.2 41.3 0
00:05 1010 29.83 839 24.78 9.6 49.2 74 5.2 41.3 0
00:06 1010 29.83 839 24.78 9.4 49 74 5.1 41.2 0
00:07 1010 29.83 839 24.78 9.4 48.9 73 4.9 40.7 0
00:08 1010 29.83 839 24.78 9.4 48.9 74 5 41 0
00:09 1010 29.83 839 24.78 9.5 49 73 4.9 40.9 0
00:10 1010 29.83 839 24.78 9.5 49.1 73 4.9 40.8 0
00:11 1010 29.83 839 24.78 9.5 49.1 74 5.1 41.2 0
00:12 1010 29.83 839 24.78 9.5 49 75 5.3 41.6 0
00:13 1010 29.83 839 24.78 9.3 48.8 76 5.3 41.6 0
00:14 1010 29.83 839 24.78 9.3 48.7 77 5.4 41.7 0
00:15 1010 29.83 839 24.78 9.2 48.5 77 5.4 41.8 0
00:16 1010 29.83 839 24.78 9.1 48.3 78 5.4 41.7 0
00:17 1010 29.83 839 24.78 9 48.2 77 5.2 41.3 0
00:18 1010 29.83 839 24.78 9 48.2 75 4.9 40.8 0
00:19 1010 29.83 839 24.78 9.1 48.3 71 4.2 39.5 0
00:20 1010 29.83 839 24.78 9.2 48.6 72 4.4 39.9 0
00:21 1010 29.83 839 24.78 9.4 48.9 72 4.5 40.1 0
00:22 1010 29.83 839 24.78 9.5 49.1 72 4.7 40.4 0
00:23 1010 29.83 839 24.78 9.5 49.2 72 4.7 40.5 0
00:24 1010 29.83 839 24.78 9.6 49.2 72 4.9 40.8 0
00:25 1010 29.83 839 24.78 9.5 49.2 72 4.8 40.7 0
00:26 1010 29.83 839 24.78 9.5 49.2 73 5 41 0
00:27 1010 29.83 839 24.78 9.5 49.1 73 5 40.9 0
00:28 1010 29.83 839 24.78 9.4 48.9 74 5 41.1 0
00:29 1010 29.83 839 24.78 9.3 48.8 75 5.1 41.1 0
00:30 1010 29.83 839 24.78 9.2 48.6 75 5 41 0
00:31 1010 29.83 839 24.78 9.1 48.4 75 5 40.9 0
00:32 1010 29.83 839 24.78 9 48.2 75 4.9 40.7 0
00:33 1010 29.83 839 24.78 9 48.2 74 4.7 40.5 0
00:34 1010 29.83 839 24.78 9 48.2 74 4.7 40.5 0
00:35 1010 29.83 839 24.78 9 48.3 75 4.8 40.6 0
00:36 1010 29.83 839 24.78 9 48.2 75 4.8 40.7 0
00:37 1010 29.83 839 24.78 9 48.3 74 4.7 40.5 0
00:38 1010 29.83 839 24.78 9 48.3 74 4.8 40.6 0
00:39 1010 29.83 839 24.78 9.1 48.4 74 4.7 40.5 0
00:40 1010 29.83 839 24.78 9.1 48.4 73 4.6 40.3 0
00:41 1009 29.8 839 24.78 9.2 48.5 73 4.5 40.2 0
00:42 1009 29.8 839 24.78 9.2 48.6 72 4.5 40.1 0
00:43 1009 29.8 839 24.78 9.3 48.7 72 4.4 40 0
00:44 1009 29.8 839 24.78 9.3 48.8 71 4.4 39.9 0
00:45 1009 29.8 839 24.78 9.4 48.9 71 4.4 40 0
00:46 1009 29.8 839 24.78 9.4 48.9 71 4.5 40.1 0
00:47 1009 29.8 839 24.78 9.5 49 72 4.6 40.4 0
00:48 1009 29.8 839 24.78 9.5 49 72 4.7 40.4 0
00:49 1009 29.8 839 24.78 9.4 48.9 72 4.7 40.4 0
00:50 1009 29.8 839 24.78 9.4 48.8 73 4.8 40.6 0
00:51 1009 29.8 839 24.78 9.3 48.8 74 4.9 40.8 0
00:52 1009 29.8 839 24.78 9.4 48.8 76 5.3 41.5 0
00:53 1009 29.8 839 24.78 9.3 48.7 78 5.6 42.1 0
00:54 1009 29.8 839 24.78 9.2 48.5 78 5.5 41.9 0
00:55 1009 29.8 839 24.78 9 48.1 78 5.4 41.8 0
00:56 1009 29.8 839 24.78 8.9 48 79 5.4 41.8 0
00:57 1009 29.8 839 24.78 8.8 47.9 78 5.3 41.5 0
00:58 1009 29.8 839 24.78 8.8 47.8 79 5.3 41.5 0
00:59 1009 29.8 839 24.78 8.7 47.6 79 5.3 41.5 0
01:00 1009 29.8 839 24.78 8.6 47.5 79 5.3 41.5 0
01:01 1009 29.8 839 24.78 8.5 47.4 80 5.3 41.5 0
01:02 1009 29.8 839 24.78 8.4 47.2 80 5.2 41.3 0
01:03 1009 29.8 839 24.78 8.4 47.1 80 5.1 41.2 0
01:04 1009 29.8 839 24.78 8.4 47.1 79 5 40.9 0
01:05 1009 29.8 839 24.78 8.5 47.3 78 4.9 40.7 0
01:06 1009 29.8 839 24.78 8.6 47.4 76 4.6 40.2 0
01:07 1009 29.8 839 24.78 8.7 47.6 76 4.7 40.4 0
01:08 1009 29.8 839 24.78 8.7 47.7 74 4.4 40 0
01:09 1009 29.8 839 24.78 8.8 47.8 74 4.5 40.1 0
01:10 1009 29.8 839 24.78 8.9 48 74 4.6 40.3 0
01:11 1009 29.8 839 24.78 8.9 48.1 75 4.7 40.5 0
01:12 1009 29.8 839 24.78 9 48.1 76 4.9 40.8 0
01:13 1009 29.8 839 24.78 8.9 48 76 4.9 40.8 0
01:14 1009 29.8 839 24.78 8.9 48 75 4.7 40.5 0
01:15 1009 29.8 839 24.78 8.9 48.1 75 4.7 40.5 0
01:16 1009 29.8 839 24.78 9 48.3 75 4.9 40.8 0
01:17 1009 29.8 839 24.78 9.1 48.3 75 5 41 0
01:18 1009 29.8 839 24.78 9.1 48.4 75 5 41 0
01:19 1009 29.8 839 24.78 9.1 48.4 76 5 41 0
01:20 1009 29.8 839 24.78 9.1 48.4 75 5 41 0
01:21 1009 29.8 839 24.78 9.1 48.4 76 5.2 41.3 0
01:22 1009 29.8 839 24.78 9 48.3 78 5.4 41.7 0
01:23 1009 29.8 839 24.78 8.9 48.1 80 5.6 42.1 0
01:24 1009 29.8 839 24.78 8.8 47.8 81 5.8 42.4 0
01:25 1009 29.8 839 24.78 8.6 47.4 83 5.9 42.6 0
01:26 1009 29.8 839 24.78 8.4 47.1 84 5.9 42.5 0
01:27 1009 29.8 839 24.78 8.2 46.8 85 5.8 42.5 0
01:28 1009 29.8 839 24.78 8.1 46.6 85 5.8 42.4 0
01:29 1009 29.8 839 24.78 8.1 46.5 85 5.6 42.2 0
01:30 1009 29.8 839 24.78 8 46.4 85 5.6 42.1 0
01:31 1009 29.8 839 24.78 8 46.4 85 5.6 42 0
01:32 1009 29.8 839 24.78 8 46.4 85 5.7 42.2 0
01:33 1009 29.8 839 24.78 7.9 46.2 87 5.8 42.5 0
01:34 1009 29.8 839 24.78 7.8 46.1 86 5.6 42 0
01:35 1009 29.8 839 24.78 7.9 46.2 85 5.4 41.8 0
01:36 1009 29.8 839 24.78 8 46.3 84 5.4 41.8 0
01:37 1009 29.8 839 24.78 8 46.4 84 5.4 41.8 0
01:38 1009 29.8 839 24.78 8.1 46.6 83 5.4 41.6 0
01:39 1009 29.8 839 24.78 8.2 46.7 81 5.2 41.3 0
01:40 1009 29.8 839 24.78 8.3 46.9 80 5.1 41.1 0
01:41 1009 29.8 839 24.78 8.4 47.2 80 5.1 41.2 0
01:42 1009 29.8 839 24.78 8.5 47.3 79 5.2 41.3 0
01:43 1009 29.8 839 24.78 8.6 47.4 79 5.2 41.3 0
01:44 1009 29.8 839 24.78 8.6 47.5 79 5.3 41.5 0
01:45 1009 29.8 839 24.78 8.6 47.6 79 5.3 41.5 0
01:46 1009 29.8 839 24.78 8.7 47.7 79 5.4 41.6 0
01:47 1009 29.8 839 24.78 8.7 47.7 80 5.4 41.8 0
01:48 1009 29.8 839 24.78 8.7 47.7 80 5.5 41.9 0
01:49 1010 29.83 839 24.78 8.7 47.7 81 5.6 42.2 0
01:50 1010 29.83 839 24.78 8.6 47.6 84 6 42.9 0
01:51 1010 29.83 839 24.78 8.4 47.1 85 6.1 43 0
01:52 1010 29.83 839 24.78 8.3 46.9 86 6 42.9 0
01:53 1010 29.83 839 24.78 8.1 46.6 86 5.9 42.7 0
01:54 1010 29.83 839 24.78 8.1 46.5 87 6 42.8 0
01:55 1010 29.83 839 24.78 8 46.5 87 6.1 43 0
01:56 1010 29.83 839 24.78 8 46.3 88 6.2 43.1 0
01:57 1010 29.83 839 24.78 7.9 46.2 89 6.2 43.1 0
01:58 1010 29.83 839 24.78 7.8 46.1 90 6.2 43.2 0
01:59 1010 29.83 839 24.78 7.8 46 90 6.2 43.2 0
02:00 1010 29.83 839 24.78 7.8 46 90 6.2 43.2 0
02:01 1010 29.83 839 24.78 7.7 45.9 90 6.3 43.3 0
02:02 1010 29.83 839 24.78 7.7 45.8 90 6.2 43.1 0
02:03 1010 29.83 839 24.78 7.7 45.9 91 6.3 43.3 0
02:04 1010 29.83 839 24.78 7.8 46 91 6.4 43.5 0
02:05 1010 29.83 839 24.78 7.8 46.1 91 6.4 43.6 0
02:06 1010 29.83 839 24.78 7.8 46.1 91 6.4 43.6 0
02:07 1010 29.83 839 24.78 7.9 46.2 91 6.5 43.6 0
02:08 1010 29.83 839 24.78 7.9 46.3 90 6.3 43.4 0
02:09 1010 29.83 839 24.78 7.9 46.3 90 6.4 43.5 0
02:10 1010 29.83 839 24.78 8 46.4 89 6.3 43.4 0
02:11 1010 29.83 840 24.81 8 46.5 89 6.4 43.5 0
02:12 1010 29.83 840 24.81 8 46.4 90 6.5 43.7 0
02:13 1010 29.83 840 24.81 7.9 46.2 91 6.5 43.7 0
02:14 1010 29.83 840 24.81 7.8 46 91 6.5 43.6 0
02:15 1010 29.83 840 24.81 7.6 45.8 92 6.4 43.5 0
02:16 1010 29.83 840 24.81 7.6 45.6 93 6.4 43.6 0
02:17 1010 29.83 840 24.81 7.5 45.4 93 6.4 43.5 0
02:18 1010 29.83 840 24.81 7.4 45.2 93 6.3 43.4 0
02:19 1010 29.83 840 24.81 7.3 45.2 94 6.4 43.5 0
02:20 1010 29.83 840 24.81 7.3 45.1 94 6.4 43.5 0
02:21 1010 29.83 840 24.81 7.2 45 94 6.4 43.5 0
02:22 1010 29.83 840 24.81 7.2 45 95 6.4 43.5 0
02:23 1010 29.83 840 24.81 7.1 44.8 95 6.3 43.4 0
02:24 1010 29.83 840 24.81 7.1 44.7 94 6.2 43.2 0
02:25 1010 29.83 839 24.78 7 44.6 95 6.2 43.1 0
02:26 1010 29.83 840 24.81 7 44.6 95 6.2 43.2 0
02:27 1010 29.83 839 24.78 7 44.5 95 6.2 43.2 0
02:28 1010 29.83 839 24.78 6.9 44.4 95 6.2 43.1 0
02:29 1010 29.83 839 24.78 6.9 44.4 95 6.2 43.1 0
02:30 1010 29.83 839 24.78 6.9 44.3 95 6.1 43 0
02:31 1010 29.83 840 24.81 6.8 44.3 95 6.1 43 0
02:32 1010 29.83 840 24.81 6.8 44.2 95 6.1 42.9 0
02:33 1010 29.83 840 24.81 6.8 44.2 95 6.1 43 0
02:34 1010 29.83 840 24.81 6.8 44.2 95 6.1 43 0
02:35 1010 29.83 839 24.78 6.8 44.2 95 6.1 42.9 0
02:36 1010 29.83 839 24.78 6.7 44.1 95 6.1 42.9 0
02:37 1010 29.83 839 24.78 6.7 44.1 95 6.1 42.9 0
02:38 1010 29.83 839 24.78 6.7 44 95 6 42.7 0
02:39 1010 29.83 839 24.78 6.7 44 95 6 42.8 0
02:40 1010 29.83 839 24.78 6.7 44 96 6 42.8 0
02:41 1010 29.83 839 24.78 6.6 43.9 95 5.9 42.7 0
02:42 1010 29.83 839 24.78 6.6 43.9 95 5.9 42.7 0
02:43 1010 29.83 839 24.78 6.6 43.9 95 5.9 42.6 0
02:44 1010 29.83 839 24.78 6.6 43.9 96 6 42.7 0
02:45 1010 29.83 839 24.78 6.6 43.9 95 5.9 42.6 0
02:46 1010 29.83 839 24.78 6.6 43.8 95 5.9 42.6 0
02:47 1010 29.83 839 24.78 6.6 43.8 95 5.9 42.5 0
02:48 1010 29.83 839 24.78 6.6 43.8 95 5.8 42.5 0
02:49 1010 29.83 839 24.78 6.5 43.8 95 5.8 42.4 0
02:50 1010 29.83 839 24.78 6.5 43.7 95 5.7 42.3 0
02:51 1010 29.83 839 24.78 6.5 43.6 95 5.7 42.3 0
02:52 1010 29.83 839 24.78 6.5 43.7 95 5.7 42.3 0
02:53 1010 29.83 839 24.78 6.4 43.6 95 5.7 42.2 0
02:54 1010 29.83 839 24.78 6.4 43.6 95 5.6 42.2 0
02:55 1010 29.83 839 24.78 6.4 43.5 95 5.6 42.1 0
02:56 1010 29.83 839 24.78 6.4 43.5 95 5.6 42.1 0
02:57 1010 29.83 839 24.78 6.4 43.5 95 5.6 42.1 0
02:58 1010 29.83 839 24.78 6.4 43.5 95 5.6 42.1 0
02:59 1010 29.83 839 24.78 6.4 43.6 95 5.7 42.3 0
03:00 1010 29.83 839 24.78 6.4 43.5 95 5.7 42.2 0
03:01 1010 29.83 839 24.78 6.4 43.5 95 5.7 42.2 0
03:02 1010 29.83 839 24.78 6.4 43.5 95 5.7 42.3 0
03:03 1010 29.83 839 24.78 6.4 43.5 96 5.8 42.4 0
03:04 1010 29.83 839 24.78 6.4 43.5 96 5.7 42.3 0
03:05 1010 29.83 839 24.78 6.4 43.5 96 5.8 42.4 0
03:06 1010 29.83 839 24.78 6.4 43.5 96 5.8 42.5 0
03:07 1010 29.83 839 24.78 6.4 43.5 96 5.9 42.5 0
03:08 1010 29.83 839 24.78 6.4 43.5 96 5.8 42.5 0
03:09 1010 29.83 839 24.78 6.4 43.6 96 5.9 42.6 0
03:10 1010 29.83 839 24.78 6.4 43.5 96 5.9 42.5 0
03:11 1010 29.83 839 24.78 6.4 43.5 96 5.8 42.5 0
03:12 1010 29.83 839 24.78 6.4 43.5 96 5.8 42.5 0
03:13 1010 29.83 839 24.78 6.4 43.5 96 5.8 42.5 0
03:14 1010 29.83 839 24.78 6.3 43.4 96 5.7 42.3 0
03:15 1010 29.83 839 24.78 6.4 43.4 96 5.8 42.4 0
03:16 1010 29.83 839 24.78 6.3 43.4 96 5.7 42.3 0
03:17 1010 29.83 839 24.78 6.3 43.3 96 5.7 42.3 0
03:18 1010 29.83 839 24.78 6.3 43.3 96 5.7 42.2 0
03:19 1010 29.83 839 24.78 6.3 43.3 95 5.6 42 0
03:20 1010 29.83 839 24.78 6.2 43.1 95 5.4 41.7 0
03:21 1010 29.83 839 24.78 6.2 43.2 95 5.4 41.8 0
03:22 1010 29.83 839 24.78 6.2 43.2 95 5.4 41.8 0
03:23 1010 29.83 839 24.78 6.2 43.2 95 5.5 41.8 0
03:24 1010 29.83 839 24.78 6.2 43.2 95 5.4 41.8 0
03:25 1010 29.83 839 24.78 6.2 43.2 94 5.3 41.6 0
03:26 1010 29.83 839 24.78 6.2 43.2 95 5.4 41.8 0
03:27 1010 29.83 839 24.78 6.2 43.2 95 5.4 41.8 0
03:28 1010 29.83 839 24.78 6.2 43.2 94 5.4 41.7 0
03:29 1010 29.83 839 24.78 6.2 43.2 94 5.3 41.6 0
03:30 1010 29.83 839 24.78 6.2 43.1 94 5.3 41.5 0
03:31 1010 29.83 839 24.78 6.3 43.3 94 5.3 41.6 0
03:32 1010 29.83 839 24.78 6.2 43.1 94 5.2 41.4 0
03:33 1010 29.83 839 24.78 6.2 43.2 93 5.2 41.3 0
03:34 1010 29.83 839 24.78 6.2 43.2 93 5.2 41.4 0
03:35 1010 29.83 839 24.78 6.2 43.1 93 5.1 41.2 0
03:36 1010 29.83 839 24.78 6.2 43.1 93 5.1 41.1 0
03:37 1010 29.83 839 24.78 6.2 43.1 92 4.9 40.8 0
03:38 1010 29.83 839 24.78 6.1 43.1 92 5 40.9 0
03:39 1010 29.83 839 24.78 6.2 43.1 92 5 41 0
03:40 1010 29.83 839 24.78 6.2 43.1 92 5 41 0
03:41 1010 29.83 839 24.78 6.1 42.9 92 4.8 40.7 0
03:42 1010 29.83 839 24.78 6.1 43 92 4.9 40.8 0
03:43 1010 29.83 839 24.78 6.1 43 92 4.9 40.9 0
03:44 1009 29.8 839 24.78 6.1 42.9 92 4.9 40.7 0
03:45 1010 29.83 839 24.78 6.1 42.9 92 4.8 40.7 0
03:46 1009 29.8 839 24.78 6.1 43 92 4.8 40.7 0
03:47 1009 29.8 839 24.78 6.1 42.9 92 4.9 40.7 0
03:48 1009 29.8 839 24.78 6.1 42.9 91 4.8 40.6 0
03:49 1009 29.8 839 24.78 6.1 42.9 91 4.8 40.6 0
03:50 1009 29.8 839 24.78 6.1 42.9 91 4.7 40.5 0
03:51 1009 29.8 839 24.78 6.1 42.9 91 4.7 40.4 0
03:52 1009 29.8 839 24.78 6.1 43 90 4.6 40.4 0
03:53 1009 29.8 839 24.78 6.1 42.9 90 4.6 40.3 0
03:54 1009 29.8 839 24.78 6.1 43 91 4.7 40.4 0
03:55 1009 29.8 839 24.78 6.1 43 91 4.7 40.5 0
03:56 1009 29.8 839 24.78 6.1 43 91 4.8 40.6 0
03:57 1009 29.8 839 24.78 6.1 43 91 4.7 40.5 0
03:58 1009 29.8 839 24.78 6.1 43 91 4.7 40.5 0
03:59 1009 29.8 839 24.78 6.1 43 91 4.7 40.5 0
04:00 1009 29.8 839 24.78 6.1 43 91 4.7 40.5 0
04:01 1009 29.8 839 24.78 6.1 43 91 4.7 40.5 0
04:02 1009 29.8 839 24.78 6.1 42.9 91 4.8 40.6 0
04:03 1009 29.8 839 24.78 6.1 42.9 92 4.9 40.8 0
04:04 1009 29.8 839 24.78 6 42.9 92 4.9 40.8 0
04:05 1009 29.8 839 24.78 6 42.8 93 4.9 40.8 0
04:06 1009 29.8 839 24.78 6 42.8 93 4.9 40.9 0
04:07 1009 29.8 839 24.78 6 42.8 93 4.9 40.8 0
04:08 1009 29.8 839 24.78 6 42.7 93 4.9 40.8 0
04:09 1009 29.8 838 24.75 6 42.8 93 5 40.9 0
04:10 1009 29.8 838 24.75 6 42.7 93 4.9 40.9 0
04:11 1009 29.8 838 24.75 5.9 42.7 93 5 40.9 0
04:12 1009 29.8 838 24.75 5.9 42.7 94 5 40.9 0
04:13 1009 29.8 838 24.75 5.9 42.6 94 4.9 40.9 0
04:14 1009 29.8 838 24.75 5.9 42.6 94 4.9 40.9 0
04:15 1009 29.8 838 24.75 5.9 42.6 94 5 40.9 0
04:16 1009 29.8 838 24.75 5.9 42.5 94 4.9 40.9 0
04:17 1009 29.8 838 24.75 5.9 42.6 94 5 40.9 0
04:18 1009 29.8 838 24.75 5.9 42.5 94 5 40.9 0
04:19 1009 29.8 838 24.75 5.9 42.5 94 5 40.9 0
04:20 1009 29.8 838 24.75 5.9 42.6 94 5 41 0
04:21 1009 29.8 838 24.75 5.9 42.5 94 5 41 0
04:22 1009 29.8 838 24.75 5.9 42.5 94 5 41 0
04:23 1009 29.8 838 24.75 5.9 42.6 94 5 41.1 0
04:24 1009 29.8 838 24.75 5.8 42.5 94 5 41 0
04:25 1009 29.8 838 24.75 5.8 42.5 95 5 41 0
04:26 1009 29.8 838 24.75 5.8 42.5 95 5 41.1 0
04:27 1009 29.8 838 24.75 5.8 42.4 95 5 41 0
04:28 1009 29.8 838 24.75 5.8 42.4 95 5 41.1 0
04:29 1009 29.8 838 24.75 5.8 42.4 95 5.1 41.1 0
04:30 1009 29.8 838 24.75 5.8 42.4 95 5.1 41.1 0
04:31 1009 29.8 838 24.75 5.8 42.4 95 5 41.1 0
04:32 1009 29.8 838 24.75 5.8 42.4 95 5.1 41.1 0
04:33 1009 29.8 838 24.75 5.8 42.4 95 5.1 41.2 0
04:34 1009 29.8 838 24.75 5.8 42.4 95 5 41.1 0
04:35 1009 29.8 838 24.75 5.8 42.4 95 5.1 41.1 0
04:36 1009 29.8 838 24.75 5.8 42.4 95 5.1 41.2 0
04:37 1009 29.8 838 24.75 5.8 42.5 95 5.1 41.2 0
04:38 1009 29.8 838 24.75 5.8 42.5 95 5.1 41.2 0
04:39 1009 29.8 838 24.75 5.8 42.5 95 5.1 41.2 0
04:40 1009 29.8 838 24.75 5.8 42.4 95 5.1 41.2 0
04:41 1009 29.8 838 24.75 5.8 42.5 95 5.1 41.2 0
04:42 1009 29.8 838 24.75 5.8 42.4 95 5.1 41.2 0
04:43 1009 29.8 838 24.75 5.8 42.5 95 5.1 41.2 0
04:44 1009 29.8 838 24.75 5.8 42.5 95 5.1 41.2 0
04:45 1009 29.8 838 24.75 5.8 42.5 96 5.2 41.3 0
04:46 1009 29.8 838 24.75 5.8 42.5 95 5.2 41.3 0
04:47 1009 29.8 838 24.75 5.9 42.6 96 5.2 41.4 0
04:48 1009 29.8 838 24.75 5.9 42.6 95 5.2 41.4 0
04:49 1009 29.8 838 24.75 5.9 42.6 96 5.2 41.4 0
04:50 1009 29.8 838 24.75 5.9 42.6 96 5.2 41.4 0
04:51 1009 29.8 838 24.75 5.9 42.6 96 5.2 41.4 0
04:52 1009 29.8 838 24.75 5.9 42.6 96 5.2 41.4 0
04:53 1009 29.8 838 24.75 5.9 42.6 95 5.2 41.4 0
04:54 1009 29.8 838 24.75 5.9 42.6 96 5.2 41.4 0
04:55 1009 29.8 838 24.75 5.9 42.7 95 5.3 41.5 0
04:56 1009 29.8 838 24.75 5.9 42.7 95 5.3 41.5 0
04:57 1009 29.8 838 24.75 5.9 42.6 96 5.3 41.5 0
04:58 1009 29.8 838 24.75 6 42.7 96 5.3 41.5 0
04:59 1009 29.8 838 24.75 5.9 42.7 96 5.3 41.5 0
05:00 1009 29.8 838 24.75 6 42.8 96 5.3 41.6 0
05:01 1009 29.8 838 24.75 6 42.7 96 5.3 41.5 0
05:02 1009 29.8 838 24.75 6 42.8 96 5.3 41.6 0
05:03 1009 29.8 838 24.75 6 42.7 96 5.3 41.6 0
05:04 1009 29.8 838 24.75 6 42.7 96 5.3 41.6 0
05:05 1009 29.8 838 24.75 5.9 42.7 96 5.3 41.6 0
05:06 1009 29.8 838 24.75 6 42.8 96 5.3 41.6 0
05:07 1009 29.8 838 24.75 6 42.8 96 5.3 41.6 0
05:08 1009 29.8 838 24.75 6 42.8 96 5.4 41.6 0
05:09 1009 29.8 838 24.75 6 42.8 96 5.3 41.6 0
05:10 1009 29.8 838 24.75 6 42.8 96 5.4 41.7 0
05:11 1009 29.8 838 24.75 6 42.8 96 5.3 41.6 0
05:12 1009 29.8 838 24.75 6 42.8 96 5.4 41.6 0
05:13 1009 29.8 838 24.75 6 42.9 96 5.4 41.7 0
05:14 1009 29.8 838 24.75 6 42.9 96 5.4 41.7 0
05:15 1009 29.8 838 24.75 6 42.9 96 5.4 41.7 0
05:16 1009 29.8 838 24.75 6.1 42.9 96 5.4 41.7 0
05:17 1009 29.8 838 24.75 6 42.9 96 5.4 41.7 0
05:18 1009 29.8 838 24.75 6 42.9 96 5.4 41.7 0
05:19 1009 29.8 838 24.75 6 42.9 96 5.4 41.7 0
05:20 1009 29.8 838 24.75 6 42.9 96 5.4 41.7 0
05:21 1009 29.8 838 24.75 6 42.8 96 5.4 41.6 0
05:22 1009 29.8 838 24.75 6 42.8 96 5.3 41.6 0
05:23 1009 29.8 838 24.75 6 42.8 96 5.3 41.6 0
05:24 1009 29.8 838 24.75 6 42.7 96 5.3 41.6 0
05:25 1009 29.8 838 24.75 5.9 42.7 96 5.3 41.6 0
05:26 1009 29.8 838 24.75 5.9 42.7 96 5.3 41.6 0
05:27 1009 29.8 838 24.75 5.9 42.7 96 5.3 41.5 0
05:28 1009 29.8 838 24.75 5.9 42.7 96 5.3 41.5 0
05:29 1009 29.8 838 24.75 5.9 42.6 96 5.3 41.5 0
05:30 1009 29.8 838 24.75 5.9 42.7 96 5.3 41.6 0
05:31 1009 29.8 838 24.75 5.9 42.6 96 5.2 41.4 0
05:32 1009 29.8 838 24.75 5.9 42.7 96 5.3 41.5 0
05:33 1009 29.8 838 24.75 5.9 42.6 96 5.2 41.4 0
05:34 1009 29.8 838 24.75 5.9 42.6 96 5.3 41.5 0
05:35 1009 29.8 838 24.75 5.9 42.7 96 5.3 41.5 0
05:36 1009 29.8 838 24.75 5.9 42.6 96 5.3 41.5 0
05:37 1009 29.8 838 24.75 5.9 42.6 96 5.2 41.4 0
05:38 1009 29.8 838 24.75 5.9 42.7 96 5.3 41.5 0
05:39 1009 29.8 838 24.75 5.9 42.7 96 5.3 41.5 0
05:40 1009 29.8 838 24.75 5.9 42.7 96 5.3 41.5 0
05:41 1009 29.8 838 24.75 5.9 42.7 96 5.3 41.5 0
05:42 1009 29.8 838 24.75 5.9 42.7 96 5.3 41.5 0
05:43 1009 29.8 838 24.75 6 42.7 96 5.3 41.6 0
05:44 1009 29.8 838 24.75 6 42.7 96 5.3 41.6 0
05:45 1009 29.8 838 24.75 6 42.7 96 5.3 41.6 0
05:46 1009 29.8 838 24.75 6 42.7 96 5.3 41.6 0
05:47 1009 29.8 838 24.75 6 42.8 96 5.4 41.7 0
05:48 1009 29.8 838 24.75 6 42.7 96 5.4 41.6 0
05:49 1009 29.8 838 24.75 6 42.8 96 5.4 41.7 0
05:50 1009 29.8 838 24.75 6 42.8 96 5.4 41.7 0
05:51 1009 29.8 838 24.75 6 42.8 96 5.4 41.7 0
05:52 1009 29.8 838 24.75 6 42.7 96 5.4 41.7 0
05:53 1009 29.8 838 24.75 6 42.7 96 5.4 41.7 0
05:54 1009 29.8 838 24.75 6 42.8 96 5.4 41.7 0
05:55 1009 29.8 838 24.75 6 42.8 96 5.4 41.7 0
05:56 1009 29.8 838 24.75 6 42.8 96 5.4 41.7 0
05:57 1009 29.8 838 24.75 6 42.8 96 5.4 41.7 0
05:58 1009 29.8 839 24.78 6 42.8 96 5.4 41.7 0
05:59 1009 29.8 838 24.75 6 42.8 96 5.4 41.6 0
06:00 1009 29.8 838 24.75 6 42.8 96 5.4 41.7 0
06:01 1009 29.8 838 24.75 6 42.8 96 5.4 41.7 0
06:02 1009 29.8 839 24.78 6 42.9 96 5.4 41.7 0
06:03 1009 29.8 839 24.78 6 42.9 96 5.4 41.7 0
06:04 1009 29.8 839 24.78 6 42.7 96 5.3 41.6 0
06:05 1009 29.8 839 24.78 5.9 42.7 96 5.3 41.5 0
06:06 1009 29.8 839 24.78 5.9 42.7 96 5.3 41.5 0
06:07 1009 29.8 839 24.78 5.9 42.6 96 5.2 41.4 0
06:08 1009 29.8 839 24.78 5.9 42.5 96 5.2 41.4 0
06:09 1009 29.8 839 24.78 5.8 42.5 96 5.2 41.3 0
06:10 1010 29.83 839 24.78 5.8 42.4 96 5.1 41.3 0
06:11 1010 29.83 839 24.78 5.8 42.4 96 5.1 41.2 0
06:12 1010 29.83 839 24.78 5.8 42.4 96 5.1 41.2 0
06:13 1010 29.83 839 24.78 5.8 42.4 96 5.1 41.2 0
06:14 1010 29.83 839 24.78 5.7 42.2 96 5 41 0
06:15 1010 29.83 839 24.78 5.7 42.2 96 5 41 0
06:16 1010 29.83 839 24.78 5.7 42.2 95 5 41 0
06:17 1010 29.83 839 24.78 5.7 42.3 96 5 41.1 0
06:18 1010 29.83 839 24.78 5.7 42.3 96 5.1 41.1 0
06:19 1010 29.83 839 24.78 5.7 42.3 96 5.1 41.2 0
06:20 1009 29.8 839 24.78 5.7 42.3 96 5.1 41.2 0
06:21 1009 29.8 839 24.78 5.7 42.3 96 5.1 41.2 0
06:22 1010 29.83 839 24.78 5.7 42.3 96 5.1 41.2 0
06:23 1010 29.83 839 24.78 5.7 42.3 96 5.1 41.2 0
06:24 1010 29.83 839 24.78 5.7 42.3 96 5.1 41.2 0
06:25 1010 29.83 839 24.78 5.7 42.3 96 5.1 41.2 0
06:26 1010 29.83 839 24.78 5.7 42.3 96 5.1 41.2 0
06:27 1010 29.83 839 24.78 5.7 42.3 96 5.1 41.2 0
06:28 1010 29.83 839 24.78 5.7 42.3 96 5.1 41.1 0
06:29 1010 29.83 839 24.78 5.7 42.3 95 5 41 0
06:30 1010 29.83 839 24.78 5.7 42.3 95 4.9 40.8 0
06:31 1010 29.83 839 24.78 5.7 42.3 94 4.9 40.8 0
06:32 1010 29.83 839 24.78 5.8 42.4 94 4.9 40.9 0
06:33 1010 29.83 839 24.78 5.8 42.4 94 5 40.9 0
06:34 1010 29.83 839 24.78 5.8 42.4 95 5 40.9 0
06:35 1010 29.83 839 24.78 5.8 42.5 94 5 40.9 0
06:36 1010 29.83 839 24.78 5.8 42.4 94 4.9 40.8 0
06:37 1010 29.83 839 24.78 5.8 42.5 93 4.8 40.7 0
06:38 1010 29.83 839 24.78 5.8 42.5 93 4.8 40.6 0
06:39 1010 29.83 839 24.78 5.8 42.5 93 4.8 40.7 0
06:40 1010 29.83 839 24.78 5.8 42.5 93 4.8 40.6 0
06:41 1010 29.83 839 24.78 5.9 42.6 93 4.8 40.6 0
06:42 1010 29.83 839 24.78 5.8 42.5 93 4.7 40.5 0
06:43 1009 29.8 839 24.78 5.9 42.6 93 4.8 40.6 0
06:44 1009 29.8 839 24.78 5.9 42.6 93 4.8 40.7 0
06:45 1009 29.8 839 24.78 5.9 42.6 93 4.8 40.6 0
06:46 1009 29.8 839 24.78 5.9 42.6 93 4.8 40.7 0
06:47 1009 29.8 839 24.78 5.9 42.6 93 4.8 40.6 0
06:48 1009 29.8 839 24.78 5.9 42.6 93 4.8 40.6 0
06:49 1009 29.8 839 24.78 5.9 42.7 92 4.8 40.6 0
06:50 1009 29.8 839 24.78 5.9 42.7 92 4.8 40.6 0
06:51 1009 29.8 839 24.78 5.9 42.6 93 4.8 40.6 0
06:52 1009 29.8 839 24.78 6 42.7 93 4.9 40.8 0
06:53 1009 29.8 839 24.78 6 42.7 93 4.9 40.9 0
06:54 1009 29.8 839 24.78 6 42.7 93 4.9 40.8 0
06:55 1009 29.8 839 24.78 6 42.7 93 4.9 40.8 0
06:56 1009 29.8 839 24.78 6 42.8 93 4.9 40.8 0
06:57 1009 29.8 839 24.78 6 42.7 93 4.9 40.8 0
06:58 1009 29.8 839 24.78 6 42.7 93 4.8 40.7 0
06:59 1009 29.8 839 24.78 6 42.8 93 4.9 40.9 0
07:00 1009 29.8 839 24.78 6 42.8 93 4.9 40.9 0
07:01 1009 29.8 839 24.78 6 42.8 93 5 40.9 0
07:02 1009 29.8 839 24.78 6 42.9 93 5 41 0
07:03 1009 29.8 839 24.78 6 42.9 93 5 41 0
07:04 1009 29.8 838 24.75 6.1 42.9 93 5 41 0
07:05 1009 29.8 839 24.78 6.1 42.9 93 5 41 0
07:06 1009 29.8 839 24.78 6 42.9 93 5 40.9 0
07:07 1009 29.8 839 24.78 6 42.8 93 4.9 40.9 0
07:08 1009 29.8 839 24.78 6.1 42.9 93 5 41 0
07:09 1009 29.8 838 24.75 6.1 42.9 93 5 40.9 0
07:10 1009 29.8 839 24.78 6.1 42.9 93 5 41 0
07:11 1009 29.8 839 24.78 6.1 42.9 93 5 41 0
07:12 1009 29.8 838 24.75 6.1 42.9 93 5.1 41.1 0
07:13 1009 29.8 839 24.78 6.1 42.9 94 5.1 41.2 0
07:14 1009 29.8 838 24.75 6 42.9 93 5.1 41.1 0
07:15 1009 29.8 838 24.75 6 42.9 93 5.1 41.1 0
07:16 1009 29.8 838 24.75 6 42.9 94 5.1 41.2 0
07:17 1009 29.8 838 24.75 6 42.9 94 5.1 41.2 0
07:18 1009 29.8 838 24.75 6 42.9 94 5.1 41.2 0
07:19 1009 29.8 838 24.75 6.1 43 94 5.2 41.3 0
07:20 1009 29.8 838 24.75 6.1 42.9 94 5.1 41.2 0
07:21 1009 29.8 838 24.75 6.1 42.9 94 5.1 41.2 0
07:22 1009 29.8 838 24.75 6.1 43 93 5.1 41.2 0
07:23 1009 29.8 838 24.75 6.1 43.1 93 5.1 41.3 0
07:24 1009 29.8 838 24.75 6.1 43.1 93 5.1 41.2 0
07:25 1009 29.8 838 24.75 6.2 43.1 93 5.2 41.3 0
07:26 1009 29.8 839 24.78 6.2 43.2 93 5.2 41.3 0
07:27 1009 29.8 839 24.78 6.2 43.2 93 5.2 41.4 0
07:28 1009 29.8 839 24.78 6.3 43.3 93 5.2 41.4 0
07:29 1009 29.8 839 24.78 6.3 43.3 93 5.2 41.4 0
07:30 1009 29.8 839 24.78 6.3 43.3 93 5.2 41.4 0
07:31 1009 29.8 839 24.78 6.3 43.4 93 5.3 41.5 0
07:32 1009 29.8 839 24.78 6.4 43.5 93 5.3 41.5 0
07:33 1009 29.8 838 24.75 6.4 43.6 93 5.3 41.6 0
07:34 1009 29.8 838 24.75 6.4 43.6 93 5.3 41.5 0
07:35 1009 29.8 839 24.78 6.5 43.6 93 5.4 41.7 0
07:36 1009 29.8 838 24.75 6.5 43.7 93 5.4 41.8 0
07:37 1009 29.8 838 24.75 6.6 43.8 92 5.4 41.8 0
07:38 1009 29.8 839 24.78 6.5 43.8 92 5.3 41.6 0
07:39 1009 29.8 839 24.78 6.6 43.8 92 5.4 41.6 0
07:40 1009 29.8 839 24.78 6.6 43.9 92 5.4 41.8 0
07:41 1009 29.8 839 24.78 6.7 44.1 93 5.6 42.1 0
07:42 1009 29.8 839 24.78 6.8 44.2 92 5.6 42 0
07:43 1009 29.8 839 24.78 6.8 44.2 91 5.4 41.7 0
07:44 1009 29.8 838 24.75 6.8 44.2 91 5.4 41.7 0
07:45 1009 29.8 838 24.75 6.8 44.3 91 5.5 41.9 0
07:46 1009 29.8 839 24.78 6.8 44.3 91 5.4 41.7 0
07:47 1009 29.8 838 24.75 6.9 44.3 89 5.2 41.4 0
07:48 1009 29.8 839 24.78 6.9 44.4 89 5.2 41.4 0
07:49 1009 29.8 839 24.78 6.9 44.5 89 5.3 41.6 0
07:50 1009 29.8 839 24.78 7 44.6 91 5.6 42.1 0
07:51 1009 29.8 839 24.78 7 44.6 91 5.7 42.2 0
07:52 1009 29.8 839 24.78 7 44.6 92 5.7 42.3 0
07:53 1009 29.8 839 24.78 7.1 44.7 92 5.8 42.5 0
07:54 1009 29.8 839 24.78 7.1 44.7 92 5.8 42.4 0
07:55 1009 29.8 839 24.78 7 44.6 90 5.5 41.9 0
07:56 1009 29.8 839 24.78 7 44.5 89 5.4 41.6 0
07:57 1009 29.8 839 24.78 7 44.6 90 5.4 41.8 0
07:58 1009 29.8 839 24.78 6.9 44.5 90 5.4 41.7 0
07:59 1009 29.8 839 24.78 7 44.6 90 5.4 41.8 0
08:00 1009 29.8 839 24.78 7 44.5 90 5.4 41.7 0
08:01 1009 29.8 839 24.78 7 44.5 91 5.6 42.1 0
08:02 1009 29.8 839 24.78 7 44.5 90 5.5 41.8 0
08:03 1009 29.8 839 24.78 7 44.6 91 5.6 42.1 0
08:04 1009 29.8 839 24.78 7.1 44.7 92 5.8 42.4 0
08:05 1009 29.8 839 24.78 7.1 44.7 90 5.6 42.1 0
08:06 1009 29.8 839 24.78 7.1 44.8 90 5.5 41.9 0
08:07 1009 29.8 839 24.78 7.1 44.7 89 5.5 41.8 0
08:08 1009 29.8 839 24.78 7.1 44.7 90 5.6 42.1 0
08:09 1009 29.8 839 24.78 7.1 44.9 89 5.4 41.8 0
08:10 1009 29.8 839 24.78 7.1 44.8 91 5.7 42.2 0
08:11 1009 29.8 839 24.78 7.1 44.8 90 5.5 41.9 0
08:12 1009 29.8 839 24.78 7.1 44.8 90 5.6 42.1 0
08:13 1009 29.8 839 24.78 7.1 44.8 91 5.7 42.3 0
08:14 1009 29.8 839 24.78 7.1 44.8 90 5.5 42 0
08:15 1009 29.8 839 24.78 7.1 44.8 92 5.8 42.5 0
08:16 1009 29.8 839 24.78 7.1 44.8 91 5.7 42.3 0
08:17 1009 29.8 839 24.78 7.1 44.7 90 5.6 42 0
08:18 1009 29.8 839 24.78 7 44.7 90 5.6 42 0
08:19 1009 29.8 839 24.78 7 44.6 91 5.7 42.3 0
08:20 1009 29.8 839 24.78 6.9 44.5 92 5.7 42.2 0
08:21 1009 29.8 839 24.78 6.8 44.2 92 5.6 42.2 0
08:22 1009 29.8 839 24.78 6.7 44 92 5.4 41.8 0
08:23 1009 29.8 839 24.78 6.5 43.8 94 5.6 42 0
08:24 1009 29.8 839 24.78 6.5 43.8 94 5.6 42.1 0
08:25 1009 29.8 839 24.78 6.6 43.8 95 5.8 42.4 0
08:26 1009 29.8 839 24.78 6.6 43.9 93 5.6 42.1 0
08:27 1009 29.8 839 24.78 6.6 43.9 94 5.7 42.2 0
08:28 1009 29.8 839 24.78 6.7 44 94 5.7 42.3 0
08:29 1009 29.8 839 24.78 6.7 44 93 5.7 42.2 0
08:30 1010 29.83 839 24.78 6.7 44 95 5.9 42.6 0
08:31 1010 29.83 839 24.78 6.7 44 90 5.1 41.2 0
08:32 1009 29.8 839 24.78 6.3 43.3 91 4.9 40.8 0
08:33 1009 29.8 839 24.78 6 42.8 90 4.4 39.9 0
08:34 1009 29.8 838 24.75 5.6 42.1 90 4.1 39.3 0
08:35 1009 29.8 838 24.75 5.4 41.6 90 3.8 38.9 0
08:36 1009 29.8 838 24.75 5.1 41.2 91 3.8 38.8 0
08:37 1009 29.8 839 24.78 4.9 40.9 92 3.8 38.8 0
08:38 1009 29.8 839 24.78 4.9 40.7 90 3.4 38.2 0
08:39 1009 29.8 839 24.78 4.7 40.5 91 3.3 38 0
08:40 1009 29.8 839 24.78 4.6 40.3 91 3.2 37.8 0
08:41 1009 29.8 839 24.78 4.5 40.1 91 3.1 37.6 0
08:42 1009 29.8 839 24.78 4.4 39.9 91 3 37.5 0
08:43 1010 29.83 839 24.78 4.4 39.9 92 3.2 37.7 0
08:44 1010 29.83 839 24.78 4.3 39.8 91 3 37.4 0
08:45 1010 29.83 839 24.78 4.3 39.7 91 2.9 37.3 0
08:46 1010 29.83 839 24.78 4.3 39.7 91 2.9 37.3 0
08:47 1010 29.83 839 24.78 4.2 39.6 90 2.8 37.1 0
08:48 1010 29.83 839 24.78 4.2 39.6 91 2.9 37.2 0
08:49 1010 29.83 839 24.78 4.2 39.5 90 2.7 36.8 0
08:50 1010 29.83 839 24.78 4.2 39.5 91 2.8 37 0
08:51 1010 29.83 839 24.78 4.2 39.6 91 2.9 37.2 0
08:52 1010 29.83 839 24.78 4.2 39.6 92 3 37.5 0
08:53 1010 29.83 839 24.78 4.3 39.7 92 3.2 37.7 0
08:54 1010 29.83 839 24.78 4.3 39.7 91 3 37.4 0
08:55 1010 29.83 839 24.78 4.3 39.7 91 3 37.4 0
08:56 1010 29.83 839 24.78 4.3 39.8 91 2.9 37.3 0
08:57 1010 29.83 839 24.78 4.3 39.7 90 2.7 36.9 0
08:58 1010 29.83 839 24.78 4.3 39.7 91 3 37.3 0
08:59 1010 29.83 839 24.78 4.3 39.7 90 2.7 36.9 0
09:00 1010 29.83 839 24.78 4.2 39.6 90 2.7 36.8 0
09:01 1010 29.83 839 24.78 4.2 39.5 91 2.8 37 0
09:02 1010 29.83 839 24.78 4.2 39.5 91 2.8 37.1 0
09:03 1010 29.83 839 24.78 4.2 39.5 91 2.9 37.2 0
09:04 1010 29.83 839 24.78 4.1 39.4 91 2.7 36.9 0
09:05 1010 29.83 839 24.78 4.1 39.4 91 2.8 37.1 0
09:06 1010 29.83 839 24.78 4 39.2 91 2.6 36.7 0
09:07 1010 29.83 839 24.78 4 39.2 91 2.7 36.8 0
09:08 1010 29.83 839 24.78 4 39.1 91 2.7 36.8 0
09:09 1010 29.83 840 24.81 3.9 39.1 90 2.5 36.5 0
09:10 1010 29.83 840 24.81 3.9 39 90 2.4 36.4 0
09:11 1010 29.83 840 24.81 3.9 38.9 90 2.3 36.2 0
09:12 1011 29.85 840 24.81 3.9 39 91 2.5 36.4 0
09:13 1011 29.85 840 24.81 3.8 38.8 91 2.4 36.4 0
09:14 1011 29.85 840 24.81 3.8 38.8 91 2.5 36.4 0
09:15 1011 29.85 840 24.81 3.8 38.8 91 2.5 36.4 0
09:16 1011 29.85 840 24.81 3.7 38.7 91 2.4 36.4 0
09:17 1011 29.85 840 24.81 3.7 38.6 92 2.5 36.4 0
09:18 1011 29.85 840 24.81 3.7 38.6 93 2.6 36.6 0
09:19 1011 29.85 840 24.81 3.6 38.5 93 2.6 36.7 0
09:20 1011 29.85 840 24.81 3.6 38.5 93 2.6 36.8 0
09:21 1011 29.85 840 24.81 3.6 38.4 92 2.4 36.4 0
09:22 1011 29.85 840 24.81 3.4 38.2 91 2.1 35.7 0
09:23 1011 29.85 840 24.81 3.3 38 90 1.9 35.4 0
09:24 1010 29.83 840 24.81 3.2 37.8 91 2 35.6 0
09:25 1010 29.83 840 24.81 3.2 37.7 91 1.9 35.4 0
09:26 1011 29.85 840 24.81 3.2 37.8 92 2 35.7 0
09:27 1011 29.85 840 24.81 3.2 37.7 91 1.9 35.4 0
09:28 1011 29.85 840 24.81 3.2 37.8 92 2.1 35.8 0
09:29 1011 29.85 840 24.81 3.3 37.9 92 2.2 35.9 0
09:30 1011 29.85 840 24.81 3.3 38 92 2.2 36 0
09:31 1011 29.85 840 24.81 3.4 38.1 92 2.2 36 0
09:32 1011 29.85 840 24.81 3.4 38.1 93 2.4 36.4 0
09:33 1011 29.85 840 24.81 3.5 38.3 92 2.4 36.3 0
09:34 1011 29.85 840 24.81 3.5 38.4 93 2.4 36.4 0
09:35 1011 29.85 840 24.81 3.6 38.4 93 2.5 36.5 0
09:36 1011 29.85 840 24.81 3.6 38.5 92 2.3 36.2 0
09:37 1011 29.85 840 24.81 3.6 38.5 93 2.6 36.7 0
09:38 1011 29.85 840 24.81 3.7 38.6 93 2.6 36.8 0
09:39 1011 29.85 840 24.81 3.7 38.7 93 2.7 36.9 0
09:40 1011 29.85 840 24.81 3.8 38.8 93 2.7 36.9 0
09:41 1011 29.85 840 24.81 3.9 39 93 2.9 37.1 0
09:42 1011 29.85 840 24.81 4 39.1 94 3 37.4 0
09:43 1011 29.85 840 24.81 4.1 39.3 93 3 37.4 0
09:44 1011 29.85 840 24.81 4.1 39.3 92 2.9 37.1 0
09:45 1011 29.85 840 24.81 4.1 39.4 91 2.8 37.1 0
09:46 1011 29.85 840 24.81 4.2 39.6 91 2.9 37.2 0
09:47 1011 29.85 840 24.81 4.2 39.5 93 3.1 37.6 0
09:48 1011 29.85 840 24.81 4.2 39.6 90 2.7 36.9 0
09:49 1011 29.85 840 24.81 4.2 39.6 90 2.7 36.8 0
09:50 1011 29.85 840 24.81 4.2 39.5 88 2.4 36.4 0
09:51 1011 29.85 840 24.81 4.1 39.4 89 2.5 36.6 0
09:52 1011 29.85 840 24.81 4.1 39.4 90 2.6 36.6 0
09:53 1011 29.85 840 24.81 4.1 39.4 91 2.8 37 0
09:54 1011 29.85 840 24.81 4.1 39.4 91 2.7 36.9 0
09:55 1011 29.85 840 24.81 4.2 39.5 91 2.8 37 0
09:56 1011 29.85 840 24.81 4.2 39.5 91 2.8 37.1 0
09:57 1011 29.85 840 24.81 4.1 39.4 90 2.6 36.7 0
09:58 1011 29.85 840 24.81 4.1 39.3 89 2.4 36.2 0
09:59 1011 29.85 840 24.81 4 39.3 91 2.7 36.9 0
10:00 1011 29.85 840 24.81 4.1 39.3 90 2.6 36.8 0
10:01 1011 29.85 840 24.81 4.1 39.3 90 2.6 36.7 0
10:02 1011 29.85 840 24.81 4.1 39.3 91 2.8 37 0
10:03 1011 29.85 840 24.81 4.1 39.4 90 2.6 36.8 0
10:04 1011 29.85 840 24.81 4.1 39.3 91 2.7 36.9 0
10:05 1011 29.85 840 24.81 4.1 39.4 91 2.8 37.1 0
10:06 1011 29.85 840 24.81 4.1 39.4 92 2.9 37.2 0
10:07 1011 29.85 840 24.81 4.1 39.4 91 2.8 37.1 0
10:08 1011 29.85 840 24.81 4.2 39.5 90 2.7 36.9 0
10:09 1011 29.85 840 24.81 4.2 39.5 90 2.7 36.8 0
10:10 1011 29.85 840 24.81 4.2 39.5 90 2.7 36.9 0
10:11 1011 29.85 840 24.81 4.2 39.6 90 2.7 36.8 0
10:12 1011 29.85 840 24.81 4.2 39.6 89 2.6 36.7 0
10:13 1011 29.85 840 24.81 4.2 39.6 91 2.9 37.2 0
10:14 1011 29.85 840 24.81 4.2 39.6 90 2.7 36.9 0
10:15 1011 29.85 840 24.81 4.3 39.7 91 2.9 37.2 0
10:16 1011 29.85 840 24.81 4.3 39.7 91 2.9 37.2 0
10:17 1011 29.85 840 24.81 4.3 39.7 91 2.9 37.2 0
10:18 1011 29.85 840 24.81 4.3 39.8 91 3 37.4 0
10:19 1011 29.85 840 24.81 4.3 39.8 91 3 37.4 0
10:20 1011 29.85 840 24.81 4.4 39.8 92 3.2 37.7 0
10:21 1011 29.85 840 24.81 4.4 40 92 3.3 37.9 0
10:22 1011 29.85 840 24.81 4.5 40 91 3.1 37.6 0
10:23 1011 29.85 840 24.81 4.4 40 91 3 37.5 0
10:24 1011 29.85 840 24.81 4.4 40 92 3.2 37.8 0
10:25 1011 29.85 840 24.81 4.4 40 90 3 37.4 0
10:26 1011 29.85 840 24.81 4.4 40 92 3.2 37.8 0
10:27 1011 29.85 840 24.81 4.4 40 92 3.2 37.8 0
10:28 1011 29.85 840 24.81 4.4 40 91 3 37.5 0
10:29 1011 29.85 840 24.81 4.4 39.9 91 3.1 37.6 0
10:30 1011 29.85 840 24.81 4.4 39.9 92 3.2 37.8 0
10:31 1011 29.85 840 24.81 4.4 40 92 3.3 37.9 0
10:32 1011 29.85 840 24.81 4.4 39.9 90 2.9 37.1 0
10:33 1011 29.85 840 24.81 4.3 39.7 91 2.9 37.2 0
10:34 1011 29.85 840 24.81 4.3 39.7 90 2.8 37.1 0
10:35 1011 29.85 840 24.81 4.2 39.6 91 2.9 37.2 0
10:36 1011 29.85 840 24.81 4.2 39.6 91 2.8 37.1 0
10:37 1011 29.85 840 24.81 4.2 39.5 91 2.9 37.1 0
10:38 1011 29.85 840 24.81 4.2 39.6 91 2.9 37.1 0
10:39 1011 29.85 840 24.81 4.3 39.7 92 3.1 37.5 0
10:40 1011 29.85 840 24.81 4.3 39.7 89 2.7 36.8 0
10:41 1011 29.85 840 24.81 4.3 39.7 90 2.8 37.1 0
10:42 1011 29.85 840 24.81 4.2 39.5 90 2.6 36.7 0
10:43 1011 29.85 840 24.81 4.2 39.5 90 2.6 36.7 0
10:44 1011 29.85 840 24.81 4.1 39.5 91 2.7 36.9 0
10:45 1011 29.85 840 24.81 4.1 39.4 90 2.7 36.8 0
10:46 1011 29.85 840 24.81 4.1 39.4 90 2.6 36.6 0
10:47 1011 29.85 840 24.81 4.2 39.5 91 2.8 37.1 0
10:48 1011 29.85 840 24.81 4.2 39.6 90 2.8 37 0
10:49 1011 29.85 840 24.81 4.3 39.8 91 3 37.3 0
10:50 1011 29.85 840 24.81 4.5 40 93 3.3 38 0
10:51 1011 29.85 840 24.81 4.7 40.5 91 3.4 38.2 0
10:52 1011 29.85 840 24.81 4.8 40.7 88 3 37.4 0
10:53 1011 29.85 840 24.81 4.9 40.7 88 3.1 37.5 0
10:54 1011 29.85 840 24.81 4.8 40.6 90 3.3 37.9 0
10:55 1011 29.85 840 24.81 4.8 40.7 88 2.9 37.3 0
10:56 1011 29.85 840 24.81 4.7 40.4 88 2.9 37.2 0
10:57 1011 29.85 840 24.81 4.7 40.4 90 3.2 37.7 0
10:58 1011 29.85 840 24.81 4.7 40.4 89 3 37.3 0
10:59 1011 29.85 840 24.81 4.7 40.5 91 3.3 37.9 0
11:00 1011 29.85 840 24.81 4.9 40.7 92 3.7 38.7 0
11:01 1011 29.85 840 24.81 5 41 90 3.5 38.3 0
11:02 1011 29.85 840 24.81 5 41 88 3.2 37.7 0
11:03 1011 29.85 840 24.81 5.1 41.2 92 4 39.1 0
11:04 1011 29.85 840 24.81 5.3 41.5 93 4.2 39.5 0
11:05 1011 29.85 840 24.81 5.4 41.8 88 3.7 38.6 0
11:06 1011 29.85 840 24.81 5.5 42 93 4.5 40.1 0
11:07 1011 29.85 840 24.81 5.8 42.5 91 4.5 40.1 0
11:08 1011 29.85 840 24.81 5.9 42.6 89 4.2 39.5 0
11:09 1011 29.85 840 24.81 5.9 42.6 89 4.3 39.7 0
11:10 1011 29.85 840 24.81 5.9 42.6 88 4 39.2 0
11:11 1011 29.85 840 24.81 5.8 42.4 89 4.1 39.4 0
11:12 1011 29.85 840 24.81 5.8 42.4 87 3.8 38.9 0
11:13 1011 29.85 840 24.81 5.7 42.2 88 3.8 38.9 0
11:14 1011 29.85 840 24.81 5.7 42.2 85 3.3 37.9 0
11:15 1011 29.85 840 24.81 5.5 41.9 85 3.1 37.6 0
11:16 1011 29.85 840 24.81 5.4 41.8 90 3.9 38.9 0
11:17 1011 29.85 840 24.81 5.5 41.9 85 3.1 37.6 0
11:18 1011 29.85 840 24.81 5.5 41.9 84 3 37.4 0
11:19 1011 29.85 840 24.81 5.4 41.7 84 2.9 37.2 0
11:20 1011 29.85 840 24.81 5.3 41.6 84 2.9 37.2 0
11:21 1011 29.85 840 24.81 5.3 41.6 87 3.4 38.1 0
11:22 1011 29.85 840 24.81 5.3 41.6 86 3.2 37.8 0
11:23 1011 29.85 840 24.81 5.3 41.5 84 2.8 37 0
11:24 1011 29.85 840 24.81 5.3 41.5 88 3.5 38.3 0
11:25 1011 29.85 840 24.81 5.3 41.6 88 3.5 38.2 0
11:26 1011 29.85 840 24.81 5.4 41.7 88 3.6 38.4 0
11:27 1011 29.85 840 24.81 5.5 41.8 87 3.5 38.3 0
11:28 1011 29.85 840 24.81 5.5 41.9 85 3.2 37.8 0
11:29 1011 29.85 840 24.81 5.4 41.8 86 3.2 37.8 0
11:30 1011 29.85 840 24.81 5.4 41.8 84 2.9 37.2 0
11:31 1011 29.85 840 24.81 5.5 41.8 87 3.4 38.1 0
11:32 1011 29.85 840 24.81 5.6 42.1 89 3.9 39 0
11:33 1011 29.85 840 24.81 5.6 42.2 82 2.8 37 0
11:34 1011 29.85 840 24.81 5.6 42 80 2.4 36.3 0
11:35 1011 29.85 840 24.81 5.5 41.8 80 2.3 36.2 0
11:36 1011 29.85 840 24.81 5.4 41.8 85 3.1 37.6 0
11:37 1011 29.85 840 24.81 5.4 41.7 83 2.8 37.1 0
11:38 1011 29.85 840 24.81 5.4 41.7 84 2.9 37.2 0
11:39 1011 29.85 840 24.81 5.4 41.7 85 3.1 37.6 0
11:40 1011 29.85 840 24.81 5.4 41.8 86 3.2 37.7 0
11:41 1011 29.85 840 24.81 5.4 41.8 84 3 37.3 0
11:42 1011 29.85 840 24.81 5.4 41.7 83 2.7 36.9 0
11:43 1011 29.85 840 24.81 5.4 41.6 85 3 37.4 0
11:44 1011 29.85 840 24.81 5.3 41.6 82 2.5 36.6 0
11:45 1011 29.85 840 24.81 5.3 41.5 83 2.6 36.7 0
11:46 1011 29.85 840 24.81 5.3 41.5 86 3.1 37.5 0
11:47 1011 29.85 840 24.81 5.2 41.3 84 2.8 37 0
11:48 1011 29.85 840 24.81 5.2 41.3 85 2.8 37.1 0
11:49 1011 29.85 840 24.81 5.1 41.2 84 2.7 36.8 0
11:50 1011 29.85 840 24.81 5.1 41.2 83 2.5 36.5 0
11:51 1011 29.85 840 24.81 5.1 41.1 84 2.5 36.6 0
11:52 1011 29.85 840 24.81 5.1 41.1 84 2.6 36.6 0
11:53 1011 29.85 840 24.81 5.1 41.2 86 3 37.3 0
11:54 1011 29.85 840 24.81 5.2 41.3 83 2.6 36.6 0
11:55 1011 29.85 840 24.81 5.1 41.2 86 2.9 37.2 0
11:56 1011 29.85 840 24.81 5.1 41.2 84 2.6 36.7 0
11:57 1011 29.85 840 24.81 5.2 41.3 84 2.7 36.9 0
11:58 1011 29.85 840 24.81 5.2 41.4 86 3 37.4 0
11:59 1011 29.85 840 24.81 5.3 41.5 87 3.2 37.8 0
12:00 1011 29.85 840 24.81 5.4 41.7 88 3.5 38.3 0
12:01 1011 29.85 840 24.81 5.4 41.8 86 3.3 38 0
12:02 1011 29.85 840 24.81 5.5 41.9 84 3.1 37.5 0
12:03 1011 29.85 840 24.81 5.6 42 86 3.4 38.1 0
12:04 1011 29.85 840 24.81 5.6 42.1 85 3.3 37.9 0
12:05 1011 29.85 840 24.81 5.7 42.3 86 3.5 38.4 0
12:06 1011 29.85 840 24.81 5.8 42.4 83 3.1 37.6 0
12:07 1011 29.85 840 24.81 5.8 42.5 83 3.2 37.7 0
12:08 1011 29.85 840 24.81 6 42.8 82 3.1 37.5 0
12:09 1011 29.85 840 24.81 6.1 43 83 3.4 38.2 0
12:10 1011 29.85 840 24.81 6.3 43.3 84 3.8 38.9 0
12:11 1011 29.85 840 24.81 6.4 43.5 83 3.7 38.6 0
12:12 1011 29.85 840 24.81 6.6 43.9 85 4.3 39.8 0
12:13 1011 29.85 840 24.81 6.8 44.2 83 4 39.3 0
12:14 1011 29.85 840 24.81 6.7 44.1 79 3.4 38.1 0
12:15 1011 29.85 840 24.81 6.9 44.4 84 4.3 39.7 0
12:16 1011 29.85 840 24.81 7 44.6 80 3.9 39 0
12:17 1011 29.85 840 24.81 7 44.6 79 3.7 38.7 0
12:18 1011 29.85 840 24.81 7.2 44.9 79 3.8 38.8 0
12:19 1011 29.85 840 24.81 7.3 45.1 85 4.9 40.8 0
12:20 1011 29.85 840 24.81 7.3 45.1 81 4.3 39.7 0
12:21 1011 29.85 840 24.81 7.3 45.1 78 3.7 38.6 0
12:22 1011 29.85 840 24.81 7.3 45.1 79 4 39.1 0
12:23 1011 29.85 840 24.81 7.5 45.4 82 4.6 40.4 0
12:24 1011 29.85 840 24.81 7.6 45.8 86 5.5 41.9 0
12:25 1011 29.85 840 24.81 7.8 46.1 85 5.5 41.9 0
12:26 1011 29.85 840 24.81 8.1 46.6 76 4.2 39.5 0
12:27 1011 29.85 840 24.81 8 46.5 74 3.8 38.8 0
12:28 1011 29.85 840 24.81 7.9 46.2 77 4 39.3 0
12:29 1011 29.85 840 24.81 8 46.3 72 3.3 38 0
12:30 1011 29.85 840 24.81 7.9 46.2 71 3 37.5 0
12:31 1011 29.85 840 24.81 7.7 45.9 73 3.2 37.8 0
12:32 1011 29.85 840 24.81 7.6 45.6 78 3.9 39 0
12:33 1011 29.85 840 24.81 7.6 45.7 74 3.2 37.8 0
12:34 1011 29.85 840 24.81 7.7 45.8 77 3.9 39.1 0
12:35 1011 29.85 840 24.81 7.8 46 76 3.9 39 0
12:36 1011 29.85 840 24.81 7.9 46.1 71 2.9 37.2 0
12:37 1011 29.85 840 24.81 7.8 46.1 77 4 39.2 0
12:38 1011 29.85 840 24.81 7.9 46.3 79 4.5 40.1 0
12:39 1011 29.85 840 24.81 8.1 46.7 74 3.8 38.8 0
12:40 1011 29.85 840 24.81 8.3 46.9 70 3.2 37.7 0
12:41 1011 29.85 840 24.81 8.2 46.8 73 3.8 38.8 0
12:42 1011 29.85 840 24.81 8.2 46.8 76 4.2 39.5 0
12:43 1011 29.85 840 24.81 8.2 46.7 75 4 39.1 0
12:44 1010 29.83 840 24.81 8.2 46.8 76 4.3 39.7 0
12:45 1011 29.85 840 24.81 8.3 46.9 70 3.1 37.6 0
12:46 1010 29.83 840 24.81 8.2 46.7 74 3.8 38.8 0
12:47 1010 29.83 840 24.81 8.2 46.8 76 4.3 39.8 0
12:48 1010 29.83 839 24.78 8.2 46.7 75 4 39.2 0
12:49 1010 29.83 839 24.78 8 46.3 74 3.6 38.5 0
12:50 1010 29.83 839 24.78 7.9 46.3 70 2.8 37 0
12:51 1010 29.83 839 24.78 8 46.4 67 2.3 36.1 0
12:52 1010 29.83 839 24.78 7.9 46.2 71 2.9 37.2 0
12:53 1010 29.83 839 24.78 7.8 46 75 3.6 38.5 0
12:54 1010 29.83 839 24.78 7.8 46 75 3.6 38.6 0
12:55 1010 29.83 839 24.78 7.8 46 72 3 37.4 0
12:56 1010 29.83 839 24.78 7.7 45.9 69 2.5 36.4 0
12:57 1010 29.83 839 24.78 7.7 45.8 70 2.6 36.7 0
12:58 1010 29.83 839 24.78 7.7 45.8 70 2.5 36.5 0
12:59 1010 29.83 839 24.78 7.7 45.8 67 2 35.6 0
13:00 1010 29.83 839 24.78 7.7 45.8 75 3.6 38.4 0
13:01 1010 29.83 839 24.78 7.7 45.8 76 3.7 38.6 0
13:02 1010 29.83 839 24.78 7.6 45.7 71 2.6 36.7 0
13:03 1010 29.83 839 24.78 7.5 45.6 73 3 37.3 0
13:04 1010 29.83 839 24.78 7.5 45.4 69 2.2 35.9 0
13:05 1010 29.83 839 24.78 7.4 45.4 68 2 35.7 0
13:06 1010 29.83 839 24.78 7.4 45.4 72 2.7 36.8 0
13:07 1010 29.83 839 24.78 7.4 45.4 73 2.9 37.2 0
13:08 1010 29.83 839 24.78 7.5 45.5 69 2.1 35.9 0
13:09 1010 29.83 839 24.78 7.5 45.5 70 2.4 36.4 0
13:10 1010 29.83 839 24.78 7.5 45.5 71 2.7 36.9 0
13:11 1010 29.83 839 24.78 7.5 45.5 67 1.8 35.2 0
13:12 1010 29.83 839 24.78 7.5 45.5 68 2.1 35.7 0
13:13 1010 29.83 839 24.78 7.5 45.5 74 3.1 37.6 0
13:14 1010 29.83 839 24.78 7.5 45.5 66 1.6 34.9 0
13:15 1010 29.83 839 24.78 7.4 45.3 64 1 33.9 0
13:16 1010 29.83 839 24.78 7.3 45.2 68 1.8 35.2 0
13:17 1010 29.83 839 24.78 7.4 45.2 73 2.8 37 0
13:18 1010 29.83 839 24.78 7.5 45.4 69 2.2 35.9 0
13:19 1010 29.83 839 24.78 7.5 45.4 68 1.9 35.5 0
13:20 1010 29.83 839 24.78 7.4 45.4 65 1.4 34.5 0
13:21 1010 29.83 839 24.78 7.5 45.5 69 2.3 36.1 0
13:22 1010 29.83 839 24.78 7.6 45.7 66 1.7 35 0
13:23 1010 29.83 839 24.78 7.7 45.9 71 2.7 36.9 0
13:24 1010 29.83 839 24.78 8 46.3 75 3.8 38.8 0
13:25 1010 29.83 839 24.78 8.2 46.7 70 3.1 37.6 0
13:26 1010 29.83 839 24.78 8.3 46.9 64 1.8 35.2 0
13:27 1010 29.83 839 24.78 8.2 46.8 69 2.9 37.2 0
13:28 1010 29.83 839 24.78 8.1 46.5 67 2.4 36.3 0
13:29 1010 29.83 839 24.78 8.1 46.6 68 2.5 36.6 0
13:30 1010 29.83 839 24.78 8.1 46.6 68 2.6 36.8 0
13:31 1010 29.83 839 24.78 8.1 46.6 64 1.7 35 0
13:32 1010 29.83 839 24.78 8.1 46.6 67 2.3 36.2 0
13:33 1010 29.83 839 24.78 8.2 46.7 69 2.9 37.2 0
13:34 1010 29.83 839 24.78 8.3 46.9 68 2.8 37 0
13:35 1010 29.83 839 24.78 8.3 46.9 70 3.2 37.7 0
13:36 1010 29.83 839 24.78 8.4 47.1 69 3 37.5 0
13:37 1010 29.83 839 24.78 8.4 47.2 71 3.5 38.4 0
13:38 1010 29.83 839 24.78 8.5 47.3 72 3.7 38.6 0
13:39 1010 29.83 839 24.78 8.6 47.5 70 3.4 38.2 0
13:40 1010 29.83 839 24.78 8.7 47.7 69 3.4 38.2 0
13:41 1010 29.83 839 24.78 8.8 47.8 63 2.2 35.9 0
13:42 1010 29.83 839 24.78 8.7 47.6 64 2.2 35.9 0
13:43 1010 29.83 839 24.78 8.7 47.6 62 1.7 35.1 0
13:44 1010 29.83 839 24.78 8.7 47.6 67 2.9 37.3 0
13:45 1010 29.83 839 24.78 8.6 47.5 75 4.4 39.9 0
13:46 1010 29.83 839 24.78 8.6 47.4 68 3 37.4 0
13:47 1010 29.83 839 24.78 8.5 47.2 64 2 35.6 0
13:48 1010 29.83 839 24.78 8.4 47.1 73 3.7 38.7 0
13:49 1010 29.83 839 24.78 8.3 47 67 2.5 36.5 0
13:50 1010 29.83 839 24.78 8.2 46.8 67 2.6 36.6 0
13:51 1010 29.83 839 24.78 8.1 46.5 67 2.4 36.3 0
13:52 1010 29.83 839 24.78 8 46.4 72 3.3 37.9 0
13:53 1010 29.83 839 24.78 7.9 46.2 74 3.6 38.5 0
13:54 1010 29.83 839 24.78 7.9 46.1 73 3.4 38.1 0
13:55 1010 29.83 839 24.78 7.7 45.9 73 3.2 37.7 0
13:56 1010 29.83 839 24.78 7.7 45.9 73 3.2 37.7 0
13:57 1010 29.83 839 24.78 7.7 45.8 71 2.8 37.1 0
13:58 1010 29.83 839 24.78 7.7 45.8 73 3.2 37.8 0
13:59 1010 29.83 839 24.78 7.8 46 69 2.5 36.6 0
14:00 1010 29.83 839 24.78 7.7 45.8 71 2.7 36.8 0
14:01 1010 29.83 839 24.78 7.6 45.7 73 3.2 37.7 0
14:02 1010 29.83 839 24.78 7.6 45.6 74 3.3 37.9 0
14:03 1010 29.83 839 24.78 7.5 45.5 69 2.3 36.1 0
14:04 1010 29.83 839 24.78 7.4 45.3 70 2.2 36 0
14:05 1010 29.83 839 24.78 7.3 45.2 70 2.2 36 0
14:06 1010 29.83 839 24.78 7.2 45 69 1.9 35.4 0
14:07 1010 29.83 839 24.78 7.2 44.9 73 2.6 36.7 0
14:08 1010 29.83 840 24.81 7.1 44.9 74 2.8 37 0
14:09 1011 29.85 840 24.81 7 44.7 75 2.9 37.2 0
14:10 1011 29.85 840 24.81 6.4 43.6 78 2.9 37.1 0
14:11 1011 29.85 840 24.81 5.6 42.1 81 2.6 36.7 0
14:12 1011 29.85 840 24.81 4.9 40.8 84 2.4 36.2 0
14:13 1011 29.85 840 24.81 4.3 39.8 86 2.2 36 0
14:14 1010 29.83 840 24.81 3.8 38.8 86 1.7 35 0
14:15 1010 29.83 839 24.78 3.3 37.9 88 1.5 34.7 0
14:16 1011 29.85 840 24.81 2.9 37.2 91 1.5 34.8 0
14:17 1011 29.85 840 24.81 2.6 36.7 92 1.4 34.5 0
14:18 1011 29.85 840 24.81 2.4 36.3 92 1.3 34.3 0
14:19 1011 29.85 840 24.81 2.2 36 93 1.2 34.2 0
14:20 1011 29.85 840 24.81 2.1 35.8 94 1.2 34.2 0
14:21 1011 29.85 840 24.81 2.1 35.7 95 1.3 34.3 0
14:22 1011 29.85 840 24.81 2 35.7 95 1.3 34.4 0
14:23 1011 29.85 841 24.83 2 35.6 95 1.3 34.4 0
14:24 1011 29.85 841 24.83 2.1 35.7 95 1.4 34.5 0
14:25 1011 29.85 841 24.83 2.1 35.7 96 1.4 34.6 0
14:26 1011 29.85 841 24.83 2.1 35.8 95 1.4 34.6 0
14:27 1011 29.85 841 24.83 2.1 35.8 95 1.4 34.5 0
14:28 1012 29.88 841 24.83 2.1 35.8 95 1.4 34.5 0
14:29 1012 29.88 841 24.83 2.1 35.9 95 1.5 34.7 0
14:30 1012 29.88 841 24.83 2.2 36 95 1.5 34.7 0
14:31 1012 29.88 841 24.83 2.2 36 95 1.5 34.7 0
14:32 1012 29.88 841 24.83 2.2 36 95 1.5 34.7 0
14:33 1012 29.88 841 24.83 2.2 36 95 1.5 34.7 0
14:34 1012 29.88 841 24.83 2.2 36 95 1.5 34.8 0
14:35 1012 29.88 841 24.83 2.3 36.1 95 1.5 34.8 0
14:36 1011 29.85 841 24.83 2.3 36.1 95 1.5 34.7 0
14:37 1011 29.85 841 24.83 2.3 36.2 95 1.6 34.9 0
14:38 1011 29.85 841 24.83 2.3 36.2 95 1.6 34.9 0
14:39 1012 29.88 841 24.83 2.4 36.3 95 1.7 35 0
14:40 1011 29.85 841 24.83 2.4 36.4 95 1.7 35.1 0
14:41 1011 29.85 841 24.83 2.4 36.4 95 1.7 35 0
14:42 1012 29.88 841 24.83 2.5 36.5 95 1.7 35 0
14:43 1012 29.88 841 24.83 2.6 36.6 94 1.8 35.2 0
14:44 1012 29.88 841 24.83 2.6 36.7 94 1.8 35.2 0
14:45 1012 29.88 841 24.83 2.6 36.7 94 1.7 35.1 0
14:46 1012 29.88 841 24.83 2.7 36.9 93 1.7 35.1 0
14:47 1012 29.88 841 24.83 2.8 37 93 1.7 35.1 0
14:48 1012 29.88 841 24.83 2.9 37.1 93 1.9 35.4 0
14:49 1012 29.88 841 24.83 2.9 37.2 93 1.8 35.3 0
14:50 1012 29.88 841 24.83 3 37.3 93 1.9 35.5 0
14:51 1012 29.88 841 24.83 3 37.5 93 2 35.7 0
14:52 1012 29.88 841 24.83 3.1 37.6 93 2.1 35.8 0
14:53 1012 29.88 841 24.83 3.2 37.7 91 1.9 35.4 0
14:54 1012 29.88 841 24.83 3.2 37.7 91 1.9 35.4 0
14:55 1012 29.88 841 24.83 3.3 37.9 93 2.2 36 0
14:56 1012 29.88 841 24.83 3.3 37.9 92 2.1 35.8 0
14:57 1012 29.88 841 24.83 3.3 37.9 92 2 35.7 0
14:58 1012 29.88 841 24.83 3.3 37.9 92 2.1 35.7 0
14:59 1012 29.88 841 24.83 3.3 37.9 91 2 35.7 0
15:00 1012 29.88 841 24.83 3.3 37.9 91 2 35.6 0
15:01 1012 29.88 841 24.83 3.3 37.9 92 2.2 35.9 0
15:02 1012 29.88 841 24.83 3.3 38 93 2.3 36.1 0
15:03 1012 29.88 841 24.83 3.3 38 92 2.2 35.9 0
15:04 1012 29.88 841 24.83 3.3 38 93 2.2 36 0
15:05 1012 29.88 841 24.83 3.3 37.9 93 2.3 36.1 0
15:06 1012 29.88 841 24.83 3.3 37.9 93 2.2 35.9 0
15:07 1012 29.88 841 24.83 3.3 37.9 93 2.3 36.1 0
15:08 1012 29.88 841 24.83 3.3 37.9 94 2.4 36.4 0
15:09 1012 29.88 841 24.83 3.3 37.9 94 2.4 36.3 0
15:10 1012 29.88 841 24.83 3.3 37.9 94 2.4 36.3 0
15:11 1012 29.88 841 24.83 3.3 37.9 94 2.4 36.2 0
15:12 1012 29.88 841 24.83 3.3 38 94 2.4 36.3 0
15:13 1012 29.88 841 24.83 3.4 38 94 2.4 36.3 0
15:14 1012 29.88 841 24.83 3.4 38.1 93 2.4 36.3 0
15:15 1012 29.88 841 24.83 3.4 38.2 93 2.5 36.4 0
15:16 1012 29.88 841 24.83 3.5 38.2 93 2.4 36.4 0
15:17 1012 29.88 841 24.83 3.5 38.4 93 2.6 36.6 0
15:18 1012 29.88 841 24.83 3.6 38.5 93 2.5 36.5 0
15:19 1012 29.88 841 24.83 3.7 38.7 93 2.7 36.9 0
15:20 1012 29.88 841 24.83 3.8 38.8 93 2.7 36.9 0
15:21 1012 29.88 841 24.83 4 39.1 93 3 37.4 0
15:22 1012 29.88 841 24.83 4.1 39.4 95 3.4 38.2 0
15:23 1012 29.88 841 24.83 4.4 39.9 95 3.6 38.5 0
15:24 1012 29.88 841 24.83 4.6 40.3 94 3.7 38.6 0
15:25 1012 29.88 841 24.83 4.8 40.7 93 3.8 38.8 0
15:26 1012 29.88 841 24.83 5 41 92 3.8 38.8 0
15:27 1012 29.88 841 24.83 5.3 41.5 93 4.2 39.5 0
15:28 1012 29.88 841 24.83 5.5 41.8 92 4.3 39.8 0
15:29 1012 29.88 841 24.83 5.8 42.4 92 4.5 40.1 0
15:30 1012 29.88 841 24.83 5.8 42.5 93 4.7 40.5 0
15:31 1012 29.88 841 24.83 6.2 43.1 92 5 41.1 0
15:32 1012 29.88 841 24.83 6.3 43.4 92 5.1 41.1 0
15:33 1012 29.88 841 24.83 6.5 43.8 85 4.2 39.6 0
15:34 1012 29.88 841 24.83 6.6 43.9 87 4.5 40.2 0
15:35 1012 29.88 841 24.83 6.7 44.1 86 4.6 40.3 0
15:36 1012 29.88 841 24.83 6.8 44.2 82 3.9 39 0
15:37 1011 29.85 841 24.83 6.7 44.1 86 4.5 40.1 0
15:38 1011 29.85 841 24.83 6.8 44.2 85 4.5 40 0
15:39 1011 29.85 841 24.83 6.9 44.4 84 4.4 40 0
15:40 1011 29.85 841 24.83 7 44.6 79 3.5 38.3 0
15:41 1011 29.85 841 24.83 6.8 44.3 79 3.4 38.2 0
15:42 1011 29.85 841 24.83 6.8 44.3 77 3.1 37.6 0
15:43 1011 29.85 841 24.83 7 44.5 82 4.1 39.4 0
15:44 1011 29.85 841 24.83 7.1 44.8 81 4.1 39.4 0
15:45 1011 29.85 841 24.83 7.2 44.9 78 3.5 38.4 0
15:46 1011 29.85 841 24.83 7.1 44.7 76 3.2 37.8 0
15:47 1011 29.85 840 24.81 7.1 44.7 83 4.3 39.7 0
15:48 1011 29.85 840 24.81 7.1 44.7 80 3.8 38.9 0
15:49 1011 29.85 840 24.81 7 44.6 79 3.7 38.6 0
15:50 1011 29.85 840 24.81 6.9 44.4 79 3.4 38.2 0
15:51 1011 29.85 840 24.81 6.8 44.3 82 4 39.2 0
15:52 1011 29.85 840 24.81 6.9 44.4 83 4.1 39.4 0
15:53 1011 29.85 840 24.81 7.1 44.7 82 4.1 39.4 0
15:54 1011 29.85 840 24.81 7 44.6 81 4 39.3 0
15:55 1011 29.85 840 24.81 7 44.5 77 3.2 37.8 0
15:56 1011 29.85 840 24.81 6.9 44.5 78 3.5 38.2 0
15:57 1011 29.85 840 24.81 7 44.5 80 3.8 38.8 0
15:58 1011 29.85 841 24.83 7 44.6 79 3.6 38.5 0
15:59 1011 29.85 841 24.83 6.9 44.5 80 3.8 38.8 0
16:00 1011 29.85 840 24.81 7 44.6 77 3.2 37.7 0
16:01 1011 29.85 840 24.81 7 44.6 82 4.1 39.4 0
16:02 1011 29.85 840 24.81 7 44.7 81 3.9 39.1 0
16:03 1011 29.85 840 24.81 7 44.7 82 4.1 39.4 0
16:04 1011 29.85 840 24.81 7.1 44.8 81 4.1 39.4 0
16:05 1011 29.85 840 24.81 7.1 44.7 78 3.6 38.4 0
16:06 1011 29.85 840 24.81 7.1 44.7 80 3.8 38.9 0
16:07 1011 29.85 840 24.81 7.1 44.7 79 3.7 38.6 0
16:08 1011 29.85 840 24.81 7.1 44.8 77 3.4 38.1 0
16:09 1011 29.85 840 24.81 7.1 44.8 77 3.3 38 0
16:10 1011 29.85 840 24.81 7.1 44.7 77 3.3 37.9 0
16:11 1011 29.85 840 24.81 7.1 44.8 79 3.6 38.6 0
16:12 1011 29.85 840 24.81 7.1 44.8 76 3.1 37.6 0
16:13 1011 29.85 840 24.81 7.1 44.7 75 2.9 37.2 0
16:14 1011 29.85 840 24.81 7.1 44.8 77 3.4 38 0
16:15 1011 29.85 840 24.81 7.1 44.8 74 2.8 37.1 0
16:16 1011 29.85 840 24.81 7.3 45.1 76 3.3 37.9 0
16:17 1011 29.85 840 24.81 7.5 45.4 78 3.9 39 0
16:18 1011 29.85 840 24.81 7.6 45.6 80 4.4 39.8 0
16:19 1011 29.85 840 24.81 7.6 45.7 75 3.5 38.2 0
16:20 1011 29.85 840 24.81 7.6 45.7 73 3 37.5 0
16:21 1011 29.85 840 24.81 7.8 46 80 4.5 40.1 0
16:22 1011 29.85 840 24.81 7.9 46.3 75 3.7 38.7 0
16:23 1011 29.85 840 24.81 8 46.3 74 3.7 38.6 0
16:24 1011 29.85 840 24.81 7.8 46.1 70 2.8 37 0
16:25 1011 29.85 840 24.81 7.7 45.9 71 2.8 37.1 0
16:26 1011 29.85 840 24.81 7.7 45.8 73 3.1 37.6 0
16:27 1011 29.85 840 24.81 7.6 45.7 75 3.4 38.1 0
16:28 1011 29.85 840 24.81 7.5 45.6 74 3.2 37.8 0
16:29 1011 29.85 840 24.81 7.5 45.5 76 3.6 38.5 0
16:30 1011 29.85 840 24.81 7.4 45.4 73 2.8 37.1 0
16:31 1011 29.85 840 24.81 7.4 45.2 71 2.5 36.6 0
16:32 1011 29.85 840 24.81 7.3 45.1 74 3 37.4 0
16:33 1011 29.85 840 24.81 7.2 45 75 3 37.5 0
16:34 1011 29.85 840 24.81 7.1 44.9 78 3.6 38.5 0
16:35 1011 29.85 840 24.81 7.1 44.8 74 2.8 37 0
16:36 1011 29.85 840 24.81 7.1 44.7 77 3.4 38.1 0
16:37 1011 29.85 840 24.81 6.9 44.5 75 2.8 37 0
16:38 1011 29.85 840 24.81 6.8 44.3 78 3.3 38 0
16:39 1011 29.85 840 24.81 6.7 44 81 3.7 38.7 0
16:40 1011 29.85 840 24.81 6.6 43.9 79 3.3 37.9 0
16:41 1011 29.85 841 24.83 6.5 43.7 82 3.7 38.7 0
16:42 1011 29.85 841 24.83 6.5 43.6 82 3.5 38.4 0
16:43 1011 29.85 841 24.83 6.4 43.5 83 3.8 38.8 0
16:44 1011 29.85 841 24.83 6.4 43.4 79 2.9 37.3 0
16:45 1011 29.85 841 24.83 6.3 43.3 81 3.3 37.9 0
16:46 1011 29.85 841 24.83 6.2 43.2 80 3.1 37.5 0
16:47 1011 29.85 841 24.83 6.2 43.2 80 3.1 37.6 0
16:48 1011 29.85 841 24.83 6.3 43.3 81 3.2 37.7 0
16:49 1011 29.85 841 24.83 6.3 43.3 80 3.1 37.6 0
16:50 1011 29.85 841 24.83 6.4 43.5 77 2.7 36.8 0
16:51 1011 29.85 841 24.83 6.4 43.6 79 3.2 37.7 0
16:52 1011 29.85 841 24.83 6.5 43.8 78 3 37.5 0
16:53 1011 29.85 841 24.83 6.6 43.8 78 3 37.5 0
16:54 1011 29.85 841 24.83 6.6 43.9 79 3.3 37.9 0
16:55 1011 29.85 841 24.83 6.7 44.1 81 3.7 38.7 0
16:56 1011 29.85 841 24.83 6.8 44.2 82 3.9 39 0
16:57 1011 29.85 841 24.83 6.9 44.4 86 4.8 40.6 0
16:58 1012 29.88 841 24.83 7.1 44.8 83 4.4 39.9 0
16:59 1012 29.88 841 24.83 7.4 45.3 78 3.8 38.8 0
17:00 1012 29.88 841 24.83 7.6 45.6 81 4.6 40.2 0
17:01 1012 29.88 841 24.83 7.8 46 78 4.1 39.4 0
17:02 1012 29.88 841 24.83 7.8 46.1 76 3.9 39.1 0
17:03 1012 29.88 841 24.83 8 46.3 79 4.5 40.1 0
17:04 1012 29.88 841 24.83 8.2 46.7 80 5 41 0
17:05 1012 29.88 841 24.83 8.4 47.1 80 5.1 41.1 0
17:06 1012 29.88 841 24.83 8.5 47.3 70 3.4 38.2 0
17:07 1012 29.88 841 24.83 8.6 47.4 76 4.5 40.1 0
17:08 1012 29.88 841 24.83 8.7 47.6 70 3.5 38.4 0
17:09 1012 29.88 841 24.83 8.7 47.7 76 4.8 40.6 0
17:10 1012 29.88 841 24.83 8.8 47.8 75 4.5 40.1 0
17:11 1012 29.88 841 24.83 8.9 47.9 79 5.5 41.9 0
17:12 1012 29.88 841 24.83 9 48.2 75 4.8 40.7 0
17:13 1012 29.88 841 24.83 9 48.1 71 3.9 39.1 0
17:14 1012 29.88 841 24.83 9 48.2 66 3 37.4 0
17:15 1012 29.88 841 24.83 9 48.1 73 4.3 39.8 0
17:16 1012 29.88 841 24.83 9 48.2 77 5.2 41.3 0
17:17 1012 29.88 841 24.83 9 48.2 70 3.9 38.9 0
17:18 1012 29.88 841 24.83 9 48.1 75 4.8 40.6 0
17:19 1012 29.88 841 24.83 9 48.2 76 5 41 0
17:20 1012 29.88 841 24.83 9.1 48.3 73 4.5 40.1 0
17:21 1011 29.85 841 24.83 9 48.2 66 3.1 37.6 0
17:22 1011 29.85 840 24.81 8.7 47.6 74 4.3 39.8 0
17:23 1011 29.85 840 24.81 8.4 47.2 73 3.9 39.1 0
17:24 1011 29.85 840 24.81 8.3 46.9 71 3.4 38.1 0
17:25 1011 29.85 841 24.83 8.4 47.1 74 4.1 39.3 0
17:26 1011 29.85 841 24.83 8.5 47.3 75 4.4 40 0
17:27 1012 29.88 841 24.83 8.7 47.6 76 4.7 40.5 0
17:28 1012 29.88 841 24.83 8.9 48 66 2.8 37 0
17:29 1011 29.85 841 24.83 8.9 48 68 3.3 38 0
17:30 1011 29.85 840 24.81 8.7 47.7 69 3.4 38.2 0
17:31 1011 29.85 840 24.81 8.6 47.5 68 3 37.4 0
17:32 1011 29.85 840 24.81 8.4 47.1 68 2.8 37 0
17:33 1011 29.85 840 24.81 8.2 46.8 71 3.2 37.8 0
17:34 1011 29.85 840 24.81 8.1 46.6 69 2.7 36.9 0
17:35 1011 29.85 840 24.81 8 46.5 75 4 39.1 0
17:36 1011 29.85 840 24.81 8 46.4 69 2.7 36.9 0
17:37 1011 29.85 840 24.81 8.1 46.5 72 3.4 38.1 0
17:38 1011 29.85 840 24.81 8.1 46.5 69 2.7 36.8 0
17:39 1011 29.85 840 24.81 8.1 46.6 69 2.9 37.2 0
17:40 1011 29.85 840 24.81 8 46.5 69 2.8 37 0
17:41 1011 29.85 840 24.81 8 46.5 69 2.7 36.9 0
17:42 1011 29.85 840 24.81 8 46.4 68 2.6 36.6 0
17:43 1011 29.85 840 24.81 7.9 46.3 69 2.7 36.8 0
17:44 1011 29.85 840 24.81 8 46.3 66 2 35.5 0
17:45 1011 29.85 841 24.83 8 46.3 70 2.8 37 0
17:46 1011 29.85 840 24.81 8 46.3 69 2.6 36.7 0
17:47 1011 29.85 841 24.83 7.9 46.3 70 2.9 37.2 0
17:48 1011 29.85 841 24.83 8 46.3 71 3.1 37.6 0
17:49 1012 29.88 841 24.83 8 46.4 72 3.2 37.8 0
17:50 1012 29.88 841 24.83 8.1 46.5 66 2.2 36 0
17:51 1012 29.88 841 24.83 8.1 46.6 67 2.5 36.4 0
17:52 1012 29.88 841 24.83 8.2 46.7 67 2.5 36.5 0
17:53 1012 29.88 841 24.83 8.3 46.9 71 3.3 38 0
17:54 1012 29.88 841 24.83 8.3 47 71 3.3 38 0
17:55 1012 29.88 841 24.83 8.4 47.1 68 2.8 37.1 0
17:56 1012 29.88 841 24.83 8.4 47.2 65 2.2 36 0
17:57 1012 29.88 841 24.83 8.5 47.3 64 2 35.6 0
17:58 1012 29.88 841 24.83 8.6 47.4 64 2.2 36 0
17:59 1012 29.88 841 24.83 8.6 47.4 66 2.6 36.7 0
18:00 1012 29.88 841 24.83 8.6 47.4 61 1.5 34.8 0
18:01 1012 29.88 841 24.83 8.6 47.5 70 3.4 38.1 0
18:02 1012 29.88 841 24.83 8.6 47.5 67 2.8 37 0
18:03 1012 29.88 841 24.83 8.6 47.5 66 2.7 36.9 0
18:04 1012 29.88 841 24.83 8.6 47.5 66 2.7 36.9 0
18:05 1012 29.88 841 24.83 8.7 47.6 64 2.3 36.1 0
18:06 1012 29.88 841 24.83 8.7 47.7 70 3.5 38.4 0
18:07 1012 29.88 841 24.83 8.7 47.7 64 2.4 36.3 0
18:08 1012 29.88 841 24.83 8.8 47.8 66 2.9 37.1 0
18:09 1012 29.88 841 24.83 8.9 48 69 3.5 38.3 0
18:10 1012 29.88 841 24.83 9.1 48.3 70 3.8 38.9 0
18:11 1012 29.88 841 24.83 9.2 48.5 64 2.8 37 0
18:12 1012 29.88 841 24.83 9.3 48.8 69 4 39.3 0
18:13 1012 29.88 841 24.83 9.6 49.2 61 2.4 36.3 0
18:14 1012 29.88 841 24.83 9.7 49.5 64 3.2 37.7 0
18:15 1012 29.88 841 24.83 9.8 49.6 68 4.1 39.4 0
18:16 1012 29.88 841 24.83 9.8 49.7 59 2.3 36.1 0
18:17 1012 29.88 841 24.83 10 50 60 2.7 36.9 0
18:18 1012 29.88 841 24.83 10.1 50.2 63 3.4 38 0
18:19 1012 29.88 841 24.83 10.4 50.7 61 3.3 37.9 0
18:20 1012 29.88 841 24.83 10.6 51 53 1.3 34.4 0
18:21 1012 29.88 841 24.83 10.7 51.2 54 1.8 35.2 0
18:22 1012 29.88 841 24.83 10.7 51.2 53 1.5 34.7 0
18:23 1012 29.88 841 24.83 10.6 51 57 2.4 36.4 0
18:24 1012 29.88 841 24.83 10.6 51 54 1.6 34.8 0
18:25 1012 29.88 841 24.83 10.4 50.7 52 1 33.8 0
18:26 1012 29.88 841 24.83 10.3 50.6 57 2.3 36.1 0
18:27 1012 29.88 841 24.83 10.4 50.7 54 1.4 34.6 0
18:28 1012 29.88 841 24.83 10.4 50.7 61 3.1 37.6 0
18:29 1012 29.88 841 24.83 10.4 50.7 49 0.3 32.6 0
18:30 1012 29.88 841 24.83 10.3 50.6 53 1.2 34.1 0
18:31 1012 29.88 841 24.83 10.3 50.5 58 2.5 36.5 0
18:32 1011 29.85 841 24.83 10.2 50.4 62 3.2 37.8 0
18:33 1011 29.85 841 24.83 10 50.1 61 3 37.4 0
18:34 1012 29.88 841 24.83 10 50 61 3 37.3 0
18:35 1012 29.88 841 24.83 10.1 50.2 60 2.7 36.8 0
18:36 1012 29.88 841 24.83 10.2 50.4 55 1.6 35 0
18:37 1012 29.88 841 24.83 10.2 50.3 55 1.5 34.7 0
18:38 1012 29.88 841 24.83 10.2 50.3 55 1.6 34.8 0
18:39 1012 29.88 841 24.83 10.2 50.4 59 2.7 36.9 0
18:40 1012 29.88 841 24.83 10.3 50.5 57 2.2 35.9 0
18:41 1012 29.88 841 24.83 10.4 50.7 59 2.7 36.9 0
18:42 1012 29.88 841 24.83 10.4 50.7 54 1.6 34.9 0
18:43 1012 29.88 841 24.83 10.4 50.7 59 2.9 37.1 0
18:44 1012 29.88 841 24.83 10.5 50.8 60 3 37.5 0
18:45 1012 29.88 841 24.83 10.5 51 60 3.2 37.8 0
18:46 1012 29.88 841 24.83 10.6 51 51 0.9 33.7 0
18:47 1012 29.88 841 24.83 10.7 51.2 54 1.8 35.2 0
18:48 1012 29.88 841 24.83 10.7 51.2 58 2.8 37 0
18:49 1012 29.88 841 24.83 10.7 51.2 53 1.5 34.7 0
18:50 1012 29.88 841 24.83 10.7 51.3 56 2.4 36.4 0
18:51 1012 29.88 841 24.83 10.7 51.3 50 0.7 33.2 0
18:52 1012 29.88 841 24.83 10.6 51.2 51 1 33.9 0
18:53 1012 29.88 841 24.83 10.6 51.1 55 1.9 35.5 0
18:54 1012 29.88 841 24.83 10.6 51.1 56 2.2 35.9 0
18:55 1012 29.88 841 24.83 10.4 50.8 55 1.8 35.3 0
18:56 1012 29.88 841 24.83 10.3 50.5 55 1.6 34.9 0
18:57 1012 29.88 841 24.83 10.2 50.4 58 2.5 36.4 0
18:58 1012 29.88 841 24.83 10.3 50.6 56 1.8 35.3 0
18:59 1012 29.88 841 24.83 10.4 50.7 57 2.3 36.2 0
19:00 1012 29.88 841 24.83 10.5 50.9 54 1.7 35.1 0
19:01 1012 29.88 841 24.83 10.6 51.1 52 1.3 34.4 0
19:02 1012 29.88 841 24.83 10.6 51.1 51 1 33.8 0
19:03 1012 29.88 841 24.83 10.6 51 55 2 35.5 0
19:04 1012 29.88 841 24.83 10.6 51.1 56 2.2 35.9 0
19:05 1012 29.88 841 24.83 10.7 51.3 59 3 37.4 0
19:06 1012 29.88 841 24.83 10.7 51.2 51 1.1 33.9 0
19:07 1012 29.88 841 24.83 10.6 51 55 1.9 35.5 0
19:08 1012 29.88 841 24.83 10.4 50.6 59 2.7 36.8 0
19:09 1012 29.88 841 24.83 10.2 50.4 57 2 35.7 0
19:10 1012 29.88 841 24.83 10.2 50.4 55 1.7 35 0
19:11 1012 29.88 841 24.83 10.2 50.3 53 1.1 34.1 0
19:12 1012 29.88 841 24.83 10.1 50.3 54 1.3 34.3 0
19:13 1012 29.88 841 24.83 10.1 50.2 53 1.1 33.9 0
19:14 1012 29.88 841 24.83 10.1 50.1 51 0.5 32.9 0
19:15 1012 29.88 841 24.83 10 50 54 1.1 34.1 0
19:16 1012 29.88 841 24.83 9.9 49.9 55 1.4 34.6 0
19:17 1012 29.88 841 24.83 9.9 49.8 54 1.1 34 0
19:18 1012 29.88 841 24.83 9.9 49.7 48 -0.7 30.7 0
19:19 1012 29.88 841 24.83 9.9 49.8 49 -0.2 31.7 0
19:20 1012 29.88 841 24.83 9.9 49.8 52 0.6 33 0
19:21 1012 29.88 841 24.83 9.9 49.8 54 1 33.9 0
19:22 1012 29.88 841 24.83 9.9 49.7 55 1.3 34.4 0
19:23 1012 29.88 841 24.83 9.9 49.8 50 -0.1 31.9 0
19:24 1012 29.88 841 24.83 9.9 49.8 54 1.1 34 0
19:25 1012 29.88 841 24.83 9.9 49.9 55 1.4 34.6 0
19:26 1012 29.88 841 24.83 10.1 50.1 53 0.9 33.7 0
19:27 1012 29.88 841 24.83 10.1 50.2 54 1.2 34.2 0
19:28 1012 29.88 841 24.83 10.2 50.4 55 1.7 35 0
19:29 1012 29.88 841 24.83 10.3 50.6 51 0.8 33.4 0
19:30 1012 29.88 841 24.83 10.4 50.7 55 1.7 35 0
19:31 1012 29.88 841 24.83 10.4 50.8 51 0.7 33.2 0
19:32 1012 29.88 841 24.83 10.4 50.7 54 1.5 34.8 0
19:33 1012 29.88 841 24.83 10.4 50.7 51 0.8 33.5 0
19:34 1012 29.88 841 24.83 10.4 50.6 48 -0 32 0
19:35 1012 29.88 841 24.83 10.3 50.5 52 1 33.8 0
19:36 1012 29.88 841 24.83 10.3 50.5 47 -0.5 31.1 0
19:37 1012 29.88 841 24.83 10.2 50.4 56 1.8 35.3 0
19:38 1012 29.88 841 24.83 10.2 50.3 55 1.7 35.1 0
19:39 1012 29.88 841 24.83 10.2 50.3 55 1.5 34.7 0
19:40 1012 29.88 841 24.83 10.1 50.2 52 0.7 33.3 0
19:41 1012 29.88 841 24.83 10.1 50.2 48 -0.3 31.5 0
19:42 1012 29.88 841 24.83 10.1 50.2 50 0.3 32.5 0
19:43 1012 29.88 841 24.83 10.1 50.1 47 -0.6 30.9 0
19:44 1012 29.88 841 24.83 10 50 52 0.8 33.4 0
19:45 1012 29.88 841 24.83 10 50 48 -0.5 31.1 0
19:46 1012 29.88 841 24.83 9.9 49.9 51 0.2 32.3 0
19:47 1012 29.88 841 24.83 10 49.9 54 1.1 33.9 0
19:48 1012 29.88 841 24.83 9.9 49.8 55 1.3 34.4 0
19:49 1012 29.88 841 24.83 9.9 49.9 53 0.8 33.5 0
19:50 1012 29.88 841 24.83 10 49.9 55 1.3 34.3 0
19:51 1012 29.88 841 24.83 9.9 49.8 54 1.2 34.1 0
19:52 1012 29.88 841 24.83 9.8 49.7 53 0.7 33.3 0
19:53 1012 29.88 841 24.83 9.8 49.6 54 1 33.8 0
19:54 1012 29.88 841 24.83 9.8 49.7 56 1.4 34.5 0
19:55 1012 29.88 841 24.83 9.9 49.7 49 -0.2 31.6 0
19:56 1012 29.88 841 24.83 9.9 49.8 57 1.7 35.1 0
19:57 1012 29.88 841 24.83 9.9 49.8 49 -0.4 31.4 0
19:58 1012 29.88 841 24.83 9.9 49.9 52 0.5 33 0
19:59 1012 29.88 841 24.83 10 49.9 55 1.3 34.3 0
20:00 1012 29.88 841 24.83 10 49.9 52 0.5 33 0
20:01 1012 29.88 841 24.83 10 50 56 1.6 34.8 0
20:02 1012 29.88 841 24.83 10 50.1 55 1.4 34.6 0
20:03 1012 29.88 841 24.83 10.1 50.1 53 0.9 33.7 0
20:04 1012 29.88 841 24.83 10 50.1 51 0.5 32.8 0
20:05 1012 29.88 841 24.83 10 50 48 -0.6 31 0
20:06 1012 29.88 841 24.83 10 50 48 -0.6 31 0
20:07 1012 29.88 841 24.83 10 50 52 0.5 32.9 0
20:08 1012 29.88 841 24.83 10 49.9 54 1.1 33.9 0
20:09 1012 29.88 841 24.83 9.9 49.8 50 -0.1 31.9 0
20:10 1012 29.88 841 24.83 9.9 49.8 57 1.8 35.2 0
20:11 1012 29.88 841 24.83 9.9 49.7 52 0.5 33 0
20:12 1012 29.88 841 24.83 9.8 49.7 50 0 32 0
20:13 1012 29.88 841 24.83 9.8 49.6 52 0.5 32.9 0
20:14 1012 29.88 841 24.83 9.7 49.5 54 1 33.7 0
20:15 1012 29.88 841 24.83 9.7 49.5 55 1.3 34.3 0
20:16 1012 29.88 841 24.83 9.7 49.4 53 0.6 33 0
20:17 1012 29.88 842 24.86 9.7 49.4 57 1.7 35 0
20:18 1012 29.88 842 24.86 9.7 49.4 51 0 32 0
20:19 1012 29.88 842 24.86 9.6 49.3 54 0.7 33.2 0
20:20 1012 29.88 842 24.86 9.6 49.3 57 1.5 34.6 0
20:21 1012 29.88 841 24.83 9.6 49.2 54 0.8 33.5 0
20:22 1012 29.88 841 24.83 9.5 49.1 54 0.6 33.1 0
20:23 1012 29.88 842 24.86 9.5 49 51 -0.1 31.8 0
20:24 1012 29.88 842 24.86 9.4 49 51 -0.2 31.6 0
20:25 1012 29.88 842 24.86 9.3 48.8 53 0.2 32.3 0
20:26 1012 29.88 841 24.83 9.3 48.7 55 0.7 33.2 0
20:27 1012 29.88 842 24.86 9.2 48.6 57 1.2 34.2 0
20:28 1012 29.88 842 24.86 9.2 48.5 57 1 33.8 0
20:29 1012 29.88 842 24.86 9.1 48.4 56 0.9 33.6 0
20:30 1012 29.88 842 24.86 9.1 48.3 57 1 33.8 0
20:31 1012 29.88 842 24.86 9 48.3 59 1.6 34.8 0
20:32 1012 29.88 842 24.86 9 48.1 54 0.2 32.4 0
20:33 1012 29.88 842 24.86 8.9 48 59 1.4 34.5 0
20:34 1012 29.88 842 24.86 8.8 47.9 58 1.2 34.1 0
20:35 1012 29.88 842 24.86 8.8 47.8 58 1 33.8 0
20:36 1013 29.91 842 24.86 8.7 47.7 57 0.7 33.3 0
20:37 1013 29.91 842 24.86 8.7 47.6 57 0.7 33.3 0
20:38 1013 29.91 842 24.86 8.6 47.5 59 1.2 34.1 0
20:39 1013 29.91 842 24.86 8.6 47.4 59 1.1 34 0
20:40 1013 29.91 842 24.86 8.5 47.4 55 -0 32 0
20:41 1013 29.91 842 24.86 8.5 47.3 54 -0.1 31.8 0
20:42 1013 29.91 842 24.86 8.6 47.4 55 0.2 32.3 0
20:43 1013 29.91 842 24.86 8.5 47.3 58 0.7 33.3 0
20:44 1013 29.91 842 24.86 8.4 47.2 55 0.1 32.1 0
20:45 1013 29.91 842 24.86 8.4 47.1 55 -0.2 31.7 0
20:46 1013 29.91 842 24.86 8.3 47 57 0.2 32.4 0
20:47 1013 29.91 842 24.86 8.3 46.9 53 -0.7 30.7 0
20:48 1013 29.91 842 24.86 8.2 46.8 55 -0.3 31.5 0
20:49 1013 29.91 842 24.86 8.2 46.8 55 -0.2 31.6 0
20:50 1013 29.91 842 24.86 8.2 46.7 52 -1.1 30 0
20:51 1013 29.91 842 24.86 8.2 46.7 54 -0.7 30.8 0
20:52 1013 29.91 842 24.86 8.2 46.7 55 -0.2 31.6 0
20:53 1013 29.91 842 24.86 8 46.5 55 -0.4 31.3 0
20:54 1013 29.91 842 24.86 7.9 46.3 56 -0.3 31.5 0
20:55 1013 29.91 842 24.86 7.8 46 56 -0.3 31.4 0
20:56 1013 29.91 842 24.86 7.7 45.9 55 -0.7 30.8 0
20:57 1013 29.91 842 24.86 7.7 45.9 57 -0.2 31.7 0
20:58 1013 29.91 842 24.86 7.7 45.8 55 -0.9 30.4 0
20:59 1013 29.91 842 24.86 7.7 45.8 55 -0.8 30.5 0
21:00 1013 29.91 842 24.86 7.7 45.8 55 -0.6 30.8 0
21:01 1013 29.91 842 24.86 7.7 45.8 53 -1.3 29.6 0
21:02 1013 29.91 842 24.86 7.6 45.6 52 -1.7 29 0
21:03 1013 29.91 842 24.86 7.5 45.5 56 -0.7 30.7 0
21:04 1013 29.91 842 24.86 7.4 45.4 57 -0.5 31.2 0
21:05 1013 29.91 842 24.86 7.3 45.2 57 -0.7 30.8 0
21:06 1013 29.91 842 24.86 7.3 45.1 59 -0.3 31.5 0
21:07 1013 29.91 842 24.86 7.1 44.9 60 -0.1 31.8 0
21:08 1013 29.91 842 24.86 7 44.7 60 -0.1 31.7 0
21:09 1013 29.91 842 24.86 6.9 44.5 58 -0.7 30.8 0
21:10 1013 29.91 842 24.86 6.9 44.4 60 -0.4 31.3 0
21:11 1013 29.91 842 24.86 6.9 44.4 60 -0.3 31.4 0
21:12 1013 29.91 842 24.86 6.8 44.3 60 -0.4 31.2 0
21:13 1013 29.91 842 24.86 6.8 44.2 62 -0.1 31.9 0
21:14 1013 29.91 842 24.86 6.7 44 61 -0.3 31.4 0
21:15 1013 29.91 842 24.86 6.7 44 59 -0.7 30.8 0
21:16 1013 29.91 842 24.86 6.6 43.9 59 -0.7 30.7 0
21:17 1013 29.91 842 24.86 6.7 44 61 -0.4 31.3 0
21:18 1013 29.91 842 24.86 6.7 44 63 0.2 32.4 0
21:19 1013 29.91 842 24.86 6.6 43.8 60 -0.5 31.1 0
21:20 1013 29.91 842 24.86 6.5 43.7 62 -0.2 31.7 0
21:21 1013 29.91 842 24.86 6.5 43.7 63 0 32 0
21:22 1013 29.91 842 24.86 6.4 43.5 61 -0.5 31 0
21:23 1013 29.91 842 24.86 6.4 43.5 63 -0 32 0
21:24 1013 29.91 842 24.86 6.4 43.4 63 -0.2 31.6 0
21:25 1013 29.91 842 24.86 6.4 43.5 62 -0.4 31.3 0
21:26 1013 29.91 842 24.86 6.4 43.6 58 -1.2 29.9 0
21:27 1013 29.91 842 24.86 6.5 43.7 59 -0.9 30.4 0
21:28 1013 29.91 842 24.86 6.6 43.9 60 -0.7 30.8 0
21:29 1013 29.91 842 24.86 6.6 43.8 59 -0.8 30.6 0
21:30 1013 29.91 843 24.89 6.6 43.9 61 -0.3 31.5 0
21:31 1013 29.91 843 24.89 6.6 43.8 62 -0.1 31.8 0
21:32 1013 29.91 843 24.89 6.4 43.6 64 0.1 32.2 0
21:33 1013 29.91 843 24.89 6.3 43.4 65 0.2 32.3 0
21:34 1013 29.91 843 24.89 6.3 43.3 64 0.1 32.1 0
21:35 1013 29.91 843 24.89 6.2 43.2 65 0.1 32.3 0
21:36 1013 29.91 843 24.89 6.2 43.1 64 -0.1 31.9 0
21:37 1013 29.91 843 24.89 6.1 43.1 65 0.1 32.2 0
21:38 1013 29.91 843 24.89 6.1 42.9 66 0.1 32.2 0
21:39 1013 29.91 843 24.89 6 42.9 62 -0.6 30.9 0
21:40 1013 29.91 843 24.89 6 42.9 61 -0.9 30.4 0
21:41 1013 29.91 843 24.89 6 42.9 62 -0.6 30.9 0
21:42 1013 29.91 843 24.89 6 42.9 62 -0.7 30.7 0
21:43 1014 29.94 843 24.89 6.1 43 61 -0.8 30.6 0
21:44 1014 29.94 843 24.89 6.1 42.9 62 -0.6 30.9 0
21:45 1014 29.94 843 24.89 5.9 42.7 63 -0.6 30.9 0
21:46 1014 29.94 843 24.89 5.9 42.6 64 -0.3 31.4 0
21:47 1014 29.94 843 24.89 5.7 42.3 64 -0.5 31.1 0
21:48 1014 29.94 843 24.89 5.6 42.1 63 -0.8 30.5 0
21:49 1014 29.94 843 24.89 5.6 42 62 -1.1 29.9 0
21:50 1014 29.94 843 24.89 5.6 42.1 60 -1.5 29.3 0
21:51 1014 29.94 843 24.89 5.7 42.2 62 -1 30.2 0
21:52 1014 29.94 843 24.89 5.7 42.3 59 -1.6 29.2 0
21:53 1014 29.94 843 24.89 5.8 42.4 55 -2.6 27.3 0
21:54 1014 29.94 843 24.89 6 42.8 56 -2 28.4 0
21:55 1014 29.94 843 24.89 6.1 43.1 58 -1.5 29.3 0
21:56 1014 29.94 843 24.89 6.1 43 57 -1.6 29.1 0
21:57 1014 29.94 843 24.89 6.1 43 59 -1.2 29.8 0
21:58 1014 29.94 843 24.89 6 42.9 60 -1.2 29.8 0
21:59 1014 29.94 843 24.89 6 42.8 58 -1.6 29.2 0
22:00 1014 29.94 843 24.89 6 42.8 58 -1.6 29.1 0
22:01 1014 29.94 843 24.89 6 42.8 57 -1.9 28.6 0
22:02 1014 29.94 843 24.89 6 42.7 59 -1.5 29.3 0
22:03 1014 29.94 843 24.89 6 42.7 61 -1 30.2 0
22:04 1014 29.94 843 24.89 5.8 42.5 56 -2.3 27.9 0
22:05 1014 29.94 843 24.89 6 42.8 55 -2.4 27.7 0
22:06 1014 29.94 843 24.89 6.2 43.1 54 -2.3 27.8 0
22:07 1014 29.94 843 24.89 6.1 43.1 54 -2.5 27.6 0
22:08 1014 29.94 843 24.89 6.2 43.1 59 -1.2 29.8 0
22:09 1014 29.94 843 24.89 6 42.8 60 -1.2 29.9 0
22:10 1014 29.94 843 24.89 5.9 42.6 59 -1.6 29.1 0
22:11 1014 29.94 843 24.89 5.8 42.5 57 -2.1 28.3 0
22:12 1014 29.94 843 24.89 5.9 42.7 55 -2.5 27.5 0
22:13 1014 29.94 843 24.89 6 42.9 57 -1.8 28.8 0
22:14 1014 29.94 843 24.89 6 42.9 56 -2.1 28.3 0
22:15 1014 29.94 843 24.89 6 42.9 56 -2 28.4 0
22:16 1014 29.94 843 24.89 6 42.8 56 -2.1 28.3 0
22:17 1014 29.94 843 24.89 6 42.8 57 -1.9 28.6 0
22:18 1014 29.94 843 24.89 6 42.7 56 -2.1 28.3 0
22:19 1014 29.94 843 24.89 6 42.7 59 -1.4 29.4 0
22:20 1014 29.94 843 24.89 5.9 42.6 60 -1.3 29.6 0
22:21 1014 29.94 843 24.89 5.8 42.4 59 -1.7 29 0
22:22 1014 29.94 843 24.89 5.7 42.3 59 -1.6 29.1 0
22:23 1014 29.94 843 24.89 5.7 42.2 62 -1.1 30 0
22:24 1014 29.94 843 24.89 5.5 41.9 60 -1.5 29.2 0
22:25 1014 29.94 843 24.89 5.5 41.8 60 -1.6 29.1 0
22:26 1014 29.94 843 24.89 5.3 41.6 62 -1.4 29.5 0
22:27 1014 29.94 843 24.89 5.3 41.6 60 -1.8 28.8 0
22:28 1014 29.94 843 24.89 5.2 41.4 63 -1.2 29.9 0
22:29 1014 29.94 843 24.89 5.1 41.2 62 -1.5 29.3 0
22:30 1014 29.94 843 24.89 5 41 63 -1.5 29.3 0
22:31 1014 29.94 843 24.89 4.9 40.8 64 -1.4 29.6 0
22:32 1014 29.94 843 24.89 4.7 40.5 65 -1.2 29.8 0
22:33 1014 29.94 844 24.92 4.6 40.3 65 -1.5 29.3 0
22:34 1014 29.94 844 24.92 4.5 40.2 67 -1.1 29.9 0
22:35 1014 29.94 844 24.92 4.4 39.9 66 -1.4 29.6 0
22:36 1014 29.94 844 24.92 4.3 39.8 67 -1.2 29.8 0
22:37 1014 29.94 844 24.92 4.2 39.5 69 -1 30.1 0
22:38 1014 29.94 844 24.92 4.1 39.3 69 -1 30.1 0
22:39 1014 29.94 844 24.92 3.9 39 70 -1 30.2 0
22:40 1014 29.94 844 24.92 3.7 38.7 70 -1.3 29.7 0
22:41 1014 29.94 844 24.92 3.7 38.6 70 -1.2 29.8 0
22:42 1014 29.94 844 24.92 3.6 38.5 72 -0.9 30.4 0
22:43 1014 29.94 844 24.92 3.5 38.3 73 -0.8 30.5 0
22:44 1014 29.94 844 24.92 3.3 37.9 74 -1 30.2 0
22:45 1014 29.94 844 24.92 3.2 37.8 73 -1.1 30 0
22:46 1014 29.94 844 24.92 3.2 37.7 73 -1.2 29.9 0
22:47 1014 29.94 844 24.92 3.2 37.7 73 -1.2 29.8 0
22:48 1014 29.94 844 24.92 3.2 37.7 72 -1.4 29.5 0
22:49 1014 29.94 844 24.92 3.2 37.8 72 -1.4 29.4 0
22:50 1014 29.94 844 24.92 3.3 37.9 72 -1.3 29.6 0
22:51 1014 29.94 844 24.92 3.2 37.8 72 -1.4 29.5 0
22:52 1014 29.94 844 24.92 3.3 37.9 71 -1.5 29.4 0
22:53 1014 29.94 844 24.92 3.3 37.9 72 -1.4 29.5 0
22:54 1014 29.94 844 24.92 3.2 37.7 73 -1.2 29.8 0
22:55 1014 29.94 844 24.92 3 37.5 74 -1.2 29.8 0
22:56 1014 29.94 844 24.92 2.9 37.2 75 -1.2 29.9 0
22:57 1014 29.94 844 24.92 2.8 37 75 -1.2 29.8 0
22:58 1014 29.94 844 24.92 2.8 37 74 -1.4 29.6 0
22:59 1014 29.94 844 24.92 2.7 36.9 75 -1.3 29.6 0
23:00 1014 29.94 844 24.92 2.7 36.8 74 -1.4 29.5 0
23:01 1014 29.94 844 24.92 2.6 36.7 74 -1.6 29.1 0
23:02 1014 29.94 844 24.92 2.7 36.8 74 -1.6 29.2 0
23:03 1014 29.94 844 24.92 2.7 36.8 74 -1.4 29.4 0
23:04 1014 29.94 844 24.92 2.7 36.8 75 -1.3 29.7 0
23:05 1014 29.94 844 24.92 2.6 36.7 76 -1.2 29.9 0
23:06 1014 29.94 844 24.92 2.5 36.5 76 -1.3 29.7 0
23:07 1014 29.94 844 24.92 2.4 36.4 77 -1.3 29.7 0
23:08 1014 29.94 844 24.92 2.4 36.3 77 -1.2 29.9 0
23:09 1014 29.94 844 24.92 2.2 35.9 78 -1.3 29.7 0
23:10 1014 29.94 844 24.92 2 35.6 79 -1.3 29.7 0
23:11 1014 29.94 844 24.92 1.9 35.3 80 -1.3 29.6 0
23:12 1015 29.97 844 24.92 1.7 35 80 -1.3 29.6 0
23:13 1014 29.94 844 24.92 1.6 34.8 81 -1.4 29.5 0
23:14 1014 29.94 844 24.92 1.5 34.7 81 -1.4 29.4 0
23:15 1014 29.94 844 24.92 1.4 34.6 81 -1.5 29.3 0
23:16 1014 29.94 844 24.92 1.5 34.6 81 -1.4 29.4 0
23:17 1015 29.97 844 24.92 1.4 34.6 81 -1.4 29.4 0
23:18 1015 29.97 844 24.92 1.5 34.7 81 -1.4 29.5 0
23:19 1015 29.97 844 24.92 1.5 34.6 81 -1.4 29.5 0
23:20 1015 29.97 844 24.92 1.5 34.8 81 -1.4 29.5 0
23:21 1015 29.97 844 24.92 1.5 34.8 81 -1.4 29.4 0
23:22 1015 29.97 844 24.92 1.7 35 80 -1.4 29.5 0
23:23 1015 29.97 844 24.92 1.7 35 80 -1.5 29.4 0
23:24 1015 29.97 844 24.92 1.7 35.1 79 -1.5 29.4 0
23:25 1015 29.97 844 24.92 1.8 35.2 79 -1.4 29.4 0
23:26 1015 29.97 844 24.92 1.8 35.2 79 -1.5 29.2 0
23:27 1015 29.97 844 24.92 1.8 35.2 78 -1.7 29 0
23:28 1015 29.97 844 24.92 1.9 35.4 77 -1.8 28.8 0
23:29 1015 29.97 844 24.92 2.1 35.7 76 -1.8 28.8 0
23:30 1015 29.97 844 24.92 2.2 36 76 -1.6 29.1 0
23:31 1015 29.97 844 24.92 2.1 35.8 75 -1.8 28.7 0
23:32 1015 29.97 844 24.92 2.2 35.9 75 -1.8 28.8 0
23:33 1015 29.97 844 24.92 2.2 36 75 -1.8 28.7 0
23:34 1015 29.97 844 24.92 2.2 35.9 74 -2 28.4 0
23:35 1015 29.97 844 24.92 2.3 36.1 74 -1.8 28.7 0
23:36 1015 29.97 844 24.92 2.3 36.1 75 -1.7 28.9 0
23:37 1015 29.97 844 24.92 2.2 35.9 75 -1.8 28.8 0
23:38 1015 29.97 844 24.92 2.1 35.7 75 -1.8 28.7 0
23:39 1015 29.97 844 24.92 2 35.5 76 -1.9 28.6 0
23:40 1015 29.97 844 24.92 1.9 35.4 77 -1.8 28.8 0
23:41 1015 29.97 844 24.92 1.8 35.2 77 -1.8 28.8 0
23:42 1015 29.97 844 24.92 1.7 35 78 -1.8 28.8 0
23:43 1015 29.97 844 24.92 1.6 34.9 78 -1.8 28.8 0
23:44 1015 29.97 844 24.92 1.6 34.8 78 -1.8 28.8 0
23:45 1015 29.97 844 24.92 1.5 34.6 78 -1.9 28.6 0
23:46 1015 29.97 844 24.92 1.5 34.7 78 -1.9 28.6 0
23:47 1015 29.97 844 24.92 1.5 34.8 77 -2 28.4 0
23:48 1015 29.97 844 24.92 1.6 34.9 78 -1.8 28.7 0
23:49 1015 29.97 844 24.92 1.5 34.7 78 -1.8 28.7 0
23:50 1015 29.97 844 24.92 1.4 34.6 79 -1.8 28.8 0
23:51 1015 29.97 844 24.92 1.3 34.4 79 -1.8 28.7 0
23:52 1015 29.97 844 24.92 1.2 34.2 80 -1.9 28.6 0
23:53 1015 29.97 844 24.92 1.1 34 80 -1.9 28.6 0
23:54 1015 29.97 844 24.92 1.1 33.9 80 -2 28.4 0
23:55 1015 29.97 844 24.92 1.2 34.1 79 -2 28.3 0
23:56 1015 29.97 844 24.92 1.2 34.2 78 -2.1 28.2 0
23:57 1015 29.97 844 24.92 1.4 34.5 77 -2.2 28 0
23:58 1015 29.97 844 24.92 1.7 35 75 -2.3 27.9 0
23:59 1015 29.97 844 24.92 1.8 35.3 75 -2.1 28.2 0
24:00 1015 29.97 844 24.92 1.8 35.3 75 -2.2 28.1 0